<?xml version="1.0" encoding="UTF-8" standalone="no" ?>
<gpx xmlns="http://www.topografix.com/GPX/1/1" xmlns:xsi="http://www.w3.org/2001/XMLSchema-instance" xsi:schemaLocation="http://www.topografix.com/GPX/1/1 http://www.topografix.com/GPX/1/1/gpx.xsd" version="1.1" creator="VisuGPX - https://www.visugpx.com">
  <metadata>
    <name>rando du 31 decembre2013</name>
    <desc><![CDATA[rando en bourgogne]]></desc>
  </metadata>
  <trk>
    <name><![CDATA[2013-12-31 09:25:39 Jour]]></name>
    <trkseg>
      <trkpt lat="46.89142" lon="4.68211">
        <ele>231.33</ele>
        <time>2013-12-31T08:25:39Z</time>
      </trkpt>
      <trkpt lat="46.89141" lon="4.68209">
        <ele>231.33</ele>
        <time>2013-12-31T08:25:57Z</time>
      </trkpt>
      <trkpt lat="46.89138" lon="4.68194">
        <ele>231.33</ele>
        <time>2013-12-31T08:26:11Z</time>
      </trkpt>
      <trkpt lat="46.89137" lon="4.68188">
        <ele>229.89</ele>
        <time>2013-12-31T08:26:26Z</time>
      </trkpt>
      <trkpt lat="46.89139" lon="4.68177">
        <ele>229.41</ele>
        <time>2013-12-31T08:26:43Z</time>
      </trkpt>
      <trkpt lat="46.89139" lon="4.68175">
        <ele>229.41</ele>
        <time>2013-12-31T08:26:46Z</time>
      </trkpt>
      <trkpt lat="46.89133" lon="4.68149">
        <ele>229.41</ele>
        <time>2013-12-31T08:27:06Z</time>
      </trkpt>
      <trkpt lat="46.89133" lon="4.68142">
        <ele>230.85</ele>
        <time>2013-12-31T08:27:14Z</time>
      </trkpt>
      <trkpt lat="46.8914" lon="4.68133">
        <ele>230.85</ele>
        <time>2013-12-31T08:27:31Z</time>
      </trkpt>
      <trkpt lat="46.89142" lon="4.68131">
        <ele>230.85</ele>
        <time>2013-12-31T08:27:47Z</time>
      </trkpt>
      <trkpt lat="46.89147" lon="4.68131">
        <ele>230.37</ele>
        <time>2013-12-31T08:28:16Z</time>
      </trkpt>
      <trkpt lat="46.89144" lon="4.68132">
        <ele>230.37</ele>
        <time>2013-12-31T08:28:30Z</time>
      </trkpt>
      <trkpt lat="46.89146" lon="4.68133">
        <ele>230.37</ele>
        <time>2013-12-31T08:28:52Z</time>
      </trkpt>
      <trkpt lat="46.89141" lon="4.68132">
        <ele>230.37</ele>
        <time>2013-12-31T08:29:17Z</time>
      </trkpt>
      <trkpt lat="46.89142" lon="4.68127">
        <ele>230.37</ele>
        <time>2013-12-31T08:29:47Z</time>
      </trkpt>
      <trkpt lat="46.89147" lon="4.68124">
        <ele>230.37</ele>
        <time>2013-12-31T08:30:12Z</time>
      </trkpt>
      <trkpt lat="46.89146" lon="4.68127">
        <ele>230.37</ele>
        <time>2013-12-31T08:30:28Z</time>
      </trkpt>
      <trkpt lat="46.8915" lon="4.68127">
        <ele>230.37</ele>
        <time>2013-12-31T08:30:53Z</time>
      </trkpt>
      <trkpt lat="46.89152" lon="4.68132">
        <ele>230.37</ele>
        <time>2013-12-31T08:31:26Z</time>
      </trkpt>
      <trkpt lat="46.89152" lon="4.6813">
        <ele>230.37</ele>
        <time>2013-12-31T08:31:47Z</time>
      </trkpt>
      <trkpt lat="46.8915" lon="4.68132">
        <ele>230.37</ele>
        <time>2013-12-31T08:32:15Z</time>
      </trkpt>
      <trkpt lat="46.89149" lon="4.68137">
        <ele>230.37</ele>
        <time>2013-12-31T08:32:34Z</time>
      </trkpt>
      <trkpt lat="46.8915" lon="4.68139">
        <ele>228.93</ele>
        <time>2013-12-31T08:32:36Z</time>
      </trkpt>
      <trkpt lat="46.89156" lon="4.68154">
        <ele>227.97</ele>
        <time>2013-12-31T08:32:51Z</time>
      </trkpt>
      <trkpt lat="46.89159" lon="4.6816">
        <ele>227.49</ele>
        <time>2013-12-31T08:32:56Z</time>
      </trkpt>
      <trkpt lat="46.89169" lon="4.68185">
        <ele>226.53</ele>
        <time>2013-12-31T08:33:14Z</time>
      </trkpt>
      <trkpt lat="46.89183" lon="4.68217">
        <ele>226.05</ele>
        <time>2013-12-31T08:33:34Z</time>
      </trkpt>
      <trkpt lat="46.89194" lon="4.68238">
        <ele>226.05</ele>
        <time>2013-12-31T08:33:49Z</time>
      </trkpt>
      <trkpt lat="46.89206" lon="4.68265">
        <ele>226.05</ele>
        <time>2013-12-31T08:34:07Z</time>
      </trkpt>
      <trkpt lat="46.89222" lon="4.68295">
        <ele>226.05</ele>
        <time>2013-12-31T08:34:28Z</time>
      </trkpt>
      <trkpt lat="46.89235" lon="4.68324">
        <ele>226.05</ele>
        <time>2013-12-31T08:34:46Z</time>
      </trkpt>
      <trkpt lat="46.89251" lon="4.68344">
        <ele>226.05</ele>
        <time>2013-12-31T08:35:04Z</time>
      </trkpt>
      <trkpt lat="46.89253" lon="4.68346">
        <ele>226.05</ele>
        <time>2013-12-31T08:35:11Z</time>
      </trkpt>
      <trkpt lat="46.89262" lon="4.68363">
        <ele>226.05</ele>
        <time>2013-12-31T08:35:27Z</time>
      </trkpt>
      <trkpt lat="46.89274" lon="4.68379">
        <ele>226.05</ele>
        <time>2013-12-31T08:35:43Z</time>
      </trkpt>
      <trkpt lat="46.89291" lon="4.68399">
        <ele>225.57</ele>
        <time>2013-12-31T08:36:01Z</time>
      </trkpt>
      <trkpt lat="46.89309" lon="4.68414">
        <ele>225.57</ele>
        <time>2013-12-31T08:36:20Z</time>
      </trkpt>
      <trkpt lat="46.89326" lon="4.68429">
        <ele>225.57</ele>
        <time>2013-12-31T08:36:38Z</time>
      </trkpt>
      <trkpt lat="46.89348" lon="4.68445">
        <ele>225.09</ele>
        <time>2013-12-31T08:36:58Z</time>
      </trkpt>
      <trkpt lat="46.89367" lon="4.68462">
        <ele>225.09</ele>
        <time>2013-12-31T08:37:17Z</time>
      </trkpt>
      <trkpt lat="46.89387" lon="4.6848">
        <ele>225.09</ele>
        <time>2013-12-31T08:37:36Z</time>
      </trkpt>
      <trkpt lat="46.89403" lon="4.68494">
        <ele>225.09</ele>
        <time>2013-12-31T08:37:51Z</time>
      </trkpt>
      <trkpt lat="46.89419" lon="4.68512">
        <ele>225.09</ele>
        <time>2013-12-31T08:38:08Z</time>
      </trkpt>
      <trkpt lat="46.89435" lon="4.68535">
        <ele>225.09</ele>
        <time>2013-12-31T08:38:25Z</time>
      </trkpt>
      <trkpt lat="46.89446" lon="4.68561">
        <ele>225.09</ele>
        <time>2013-12-31T08:38:42Z</time>
      </trkpt>
      <trkpt lat="46.89455" lon="4.68589">
        <ele>225.09</ele>
        <time>2013-12-31T08:39:00Z</time>
      </trkpt>
      <trkpt lat="46.89463" lon="4.68609">
        <ele>225.09</ele>
        <time>2013-12-31T08:39:13Z</time>
      </trkpt>
      <trkpt lat="46.89474" lon="4.68635">
        <ele>225.09</ele>
        <time>2013-12-31T08:39:30Z</time>
      </trkpt>
      <trkpt lat="46.89488" lon="4.68662">
        <ele>225.09</ele>
        <time>2013-12-31T08:39:49Z</time>
      </trkpt>
      <trkpt lat="46.89509" lon="4.68687">
        <ele>225.09</ele>
        <time>2013-12-31T08:40:10Z</time>
      </trkpt>
      <trkpt lat="46.89531" lon="4.68704">
        <ele>225.09</ele>
        <time>2013-12-31T08:40:31Z</time>
      </trkpt>
      <trkpt lat="46.8955" lon="4.68718">
        <ele>225.09</ele>
        <time>2013-12-31T08:40:50Z</time>
      </trkpt>
      <trkpt lat="46.89566" lon="4.68731">
        <ele>225.09</ele>
        <time>2013-12-31T08:41:06Z</time>
      </trkpt>
      <trkpt lat="46.89585" lon="4.68747">
        <ele>225.09</ele>
        <time>2013-12-31T08:41:23Z</time>
      </trkpt>
      <trkpt lat="46.89602" lon="4.68759">
        <ele>225.09</ele>
        <time>2013-12-31T08:41:40Z</time>
      </trkpt>
      <trkpt lat="46.89614" lon="4.68768">
        <ele>224.61</ele>
        <time>2013-12-31T08:41:59Z</time>
      </trkpt>
      <trkpt lat="46.89628" lon="4.6878">
        <ele>224.61</ele>
        <time>2013-12-31T08:42:15Z</time>
      </trkpt>
      <trkpt lat="46.8965" lon="4.68799">
        <ele>224.61</ele>
        <time>2013-12-31T08:42:36Z</time>
      </trkpt>
      <trkpt lat="46.89674" lon="4.68817">
        <ele>224.61</ele>
        <time>2013-12-31T08:42:57Z</time>
      </trkpt>
      <trkpt lat="46.89689" lon="4.68828">
        <ele>224.61</ele>
        <time>2013-12-31T08:43:11Z</time>
      </trkpt>
      <trkpt lat="46.89712" lon="4.68842">
        <ele>224.61</ele>
        <time>2013-12-31T08:43:30Z</time>
      </trkpt>
      <trkpt lat="46.8974" lon="4.68856">
        <ele>224.61</ele>
        <time>2013-12-31T08:43:55Z</time>
      </trkpt>
      <trkpt lat="46.89761" lon="4.68868">
        <ele>224.61</ele>
        <time>2013-12-31T08:44:14Z</time>
      </trkpt>
      <trkpt lat="46.8977" lon="4.68872">
        <ele>224.61</ele>
        <time>2013-12-31T08:44:22Z</time>
      </trkpt>
      <trkpt lat="46.89775" lon="4.68873">
        <ele>224.61</ele>
        <time>2013-12-31T08:44:26Z</time>
      </trkpt>
      <trkpt lat="46.89796" lon="4.68885">
        <ele>224.61</ele>
        <time>2013-12-31T08:44:46Z</time>
      </trkpt>
      <trkpt lat="46.89816" lon="4.68897">
        <ele>224.61</ele>
        <time>2013-12-31T08:45:07Z</time>
      </trkpt>
      <trkpt lat="46.89834" lon="4.68909">
        <ele>224.61</ele>
        <time>2013-12-31T08:45:25Z</time>
      </trkpt>
      <trkpt lat="46.89861" lon="4.6892">
        <ele>224.61</ele>
        <time>2013-12-31T08:45:48Z</time>
      </trkpt>
      <trkpt lat="46.89886" lon="4.68921">
        <ele>224.61</ele>
        <time>2013-12-31T08:46:09Z</time>
      </trkpt>
      <trkpt lat="46.89912" lon="4.68927">
        <ele>224.61</ele>
        <time>2013-12-31T08:46:29Z</time>
      </trkpt>
      <trkpt lat="46.89934" lon="4.68938">
        <ele>224.61</ele>
        <time>2013-12-31T08:46:47Z</time>
      </trkpt>
      <trkpt lat="46.89952" lon="4.68956">
        <ele>224.61</ele>
        <time>2013-12-31T08:47:05Z</time>
      </trkpt>
      <trkpt lat="46.89968" lon="4.68976">
        <ele>224.61</ele>
        <time>2013-12-31T08:47:22Z</time>
      </trkpt>
      <trkpt lat="46.89985" lon="4.69001">
        <ele>224.61</ele>
        <time>2013-12-31T08:47:43Z</time>
      </trkpt>
      <trkpt lat="46.89995" lon="4.69014">
        <ele>224.61</ele>
        <time>2013-12-31T08:47:53Z</time>
      </trkpt>
      <trkpt lat="46.90013" lon="4.69037">
        <ele>224.61</ele>
        <time>2013-12-31T08:48:12Z</time>
      </trkpt>
      <trkpt lat="46.90019" lon="4.69047">
        <ele>224.61</ele>
        <time>2013-12-31T08:48:19Z</time>
      </trkpt>
      <trkpt lat="46.90026" lon="4.69057">
        <ele>224.61</ele>
        <time>2013-12-31T08:48:27Z</time>
      </trkpt>
      <trkpt lat="46.90038" lon="4.6907">
        <ele>224.61</ele>
        <time>2013-12-31T08:48:39Z</time>
      </trkpt>
      <trkpt lat="46.90051" lon="4.69084">
        <ele>224.12</ele>
        <time>2013-12-31T08:48:51Z</time>
      </trkpt>
      <trkpt lat="46.90055" lon="4.69088">
        <ele>224.12</ele>
        <time>2013-12-31T08:48:55Z</time>
      </trkpt>
      <trkpt lat="46.90063" lon="4.69096">
        <ele>224.12</ele>
        <time>2013-12-31T08:49:03Z</time>
      </trkpt>
      <trkpt lat="46.9007" lon="4.69101">
        <ele>224.12</ele>
        <time>2013-12-31T08:49:09Z</time>
      </trkpt>
      <trkpt lat="46.90079" lon="4.69112">
        <ele>224.12</ele>
        <time>2013-12-31T08:49:18Z</time>
      </trkpt>
      <trkpt lat="46.90096" lon="4.6913">
        <ele>224.12</ele>
        <time>2013-12-31T08:49:37Z</time>
      </trkpt>
      <trkpt lat="46.90115" lon="4.69152">
        <ele>224.12</ele>
        <time>2013-12-31T08:49:56Z</time>
      </trkpt>
      <trkpt lat="46.9013" lon="4.69168">
        <ele>224.12</ele>
        <time>2013-12-31T08:50:14Z</time>
      </trkpt>
      <trkpt lat="46.90131" lon="4.6917">
        <ele>224.12</ele>
        <time>2013-12-31T08:50:30Z</time>
      </trkpt>
      <trkpt lat="46.90143" lon="4.6918">
        <ele>224.12</ele>
        <time>2013-12-31T08:50:51Z</time>
      </trkpt>
      <trkpt lat="46.90152" lon="4.69194">
        <ele>225.09</ele>
        <time>2013-12-31T08:51:07Z</time>
      </trkpt>
      <trkpt lat="46.90159" lon="4.69205">
        <ele>226.53</ele>
        <time>2013-12-31T08:51:17Z</time>
      </trkpt>
      <trkpt lat="46.90167" lon="4.69216">
        <ele>227.49</ele>
        <time>2013-12-31T08:51:33Z</time>
      </trkpt>
      <trkpt lat="46.90173" lon="4.69224">
        <ele>227.49</ele>
        <time>2013-12-31T08:51:44Z</time>
      </trkpt>
      <trkpt lat="46.90176" lon="4.69229">
        <ele>227.49</ele>
        <time>2013-12-31T08:51:48Z</time>
      </trkpt>
      <trkpt lat="46.90189" lon="4.69255">
        <ele>225.09</ele>
        <time>2013-12-31T08:52:08Z</time>
      </trkpt>
      <trkpt lat="46.902" lon="4.69275">
        <ele>224.12</ele>
        <time>2013-12-31T08:52:24Z</time>
      </trkpt>
      <trkpt lat="46.90212" lon="4.69291">
        <ele>224.12</ele>
        <time>2013-12-31T08:52:41Z</time>
      </trkpt>
      <trkpt lat="46.90226" lon="4.69317">
        <ele>224.12</ele>
        <time>2013-12-31T08:53:00Z</time>
      </trkpt>
      <trkpt lat="46.90239" lon="4.6934">
        <ele>224.12</ele>
        <time>2013-12-31T08:53:20Z</time>
      </trkpt>
      <trkpt lat="46.90253" lon="4.69362">
        <ele>223.64</ele>
        <time>2013-12-31T08:53:39Z</time>
      </trkpt>
      <trkpt lat="46.90259" lon="4.69361">
        <ele>223.64</ele>
        <time>2013-12-31T08:53:53Z</time>
      </trkpt>
      <trkpt lat="46.90263" lon="4.69363">
        <ele>223.64</ele>
        <time>2013-12-31T08:54:19Z</time>
      </trkpt>
      <trkpt lat="46.90265" lon="4.69366">
        <ele>224.12</ele>
        <time>2013-12-31T08:54:23Z</time>
      </trkpt>
      <trkpt lat="46.90271" lon="4.69378">
        <ele>222.68</ele>
        <time>2013-12-31T08:54:34Z</time>
      </trkpt>
      <trkpt lat="46.90278" lon="4.69391">
        <ele>222.68</ele>
        <time>2013-12-31T08:54:45Z</time>
      </trkpt>
      <trkpt lat="46.90298" lon="4.69411">
        <ele>221.72</ele>
        <time>2013-12-31T08:55:06Z</time>
      </trkpt>
      <trkpt lat="46.90321" lon="4.69434">
        <ele>221.24</ele>
        <time>2013-12-31T08:55:28Z</time>
      </trkpt>
      <trkpt lat="46.90343" lon="4.69451">
        <ele>220.76</ele>
        <time>2013-12-31T08:55:48Z</time>
      </trkpt>
      <trkpt lat="46.90371" lon="4.69467">
        <ele>219.32</ele>
        <time>2013-12-31T08:56:13Z</time>
      </trkpt>
      <trkpt lat="46.90383" lon="4.69471">
        <ele>218.36</ele>
        <time>2013-12-31T08:56:23Z</time>
      </trkpt>
      <trkpt lat="46.90404" lon="4.69477">
        <ele>217.4</ele>
        <time>2013-12-31T08:56:41Z</time>
      </trkpt>
      <trkpt lat="46.9043" lon="4.69497">
        <ele>215.95</ele>
        <time>2013-12-31T08:57:03Z</time>
      </trkpt>
      <trkpt lat="46.90449" lon="4.6952">
        <ele>215.47</ele>
        <time>2013-12-31T08:57:22Z</time>
      </trkpt>
      <trkpt lat="46.90465" lon="4.69543">
        <ele>214.99</ele>
        <time>2013-12-31T08:57:40Z</time>
      </trkpt>
      <trkpt lat="46.90487" lon="4.69565">
        <ele>214.51</ele>
        <time>2013-12-31T08:58:01Z</time>
      </trkpt>
      <trkpt lat="46.9051" lon="4.69577">
        <ele>213.55</ele>
        <time>2013-12-31T08:58:21Z</time>
      </trkpt>
      <trkpt lat="46.90515" lon="4.69576">
        <ele>213.55</ele>
        <time>2013-12-31T08:58:25Z</time>
      </trkpt>
      <trkpt lat="46.9054" lon="4.69563">
        <ele>213.07</ele>
        <time>2013-12-31T08:58:46Z</time>
      </trkpt>
      <trkpt lat="46.90565" lon="4.69553">
        <ele>213.07</ele>
        <time>2013-12-31T08:59:07Z</time>
      </trkpt>
      <trkpt lat="46.90593" lon="4.69548">
        <ele>213.07</ele>
        <time>2013-12-31T08:59:28Z</time>
      </trkpt>
      <trkpt lat="46.90621" lon="4.69544">
        <ele>213.07</ele>
        <time>2013-12-31T08:59:48Z</time>
      </trkpt>
      <trkpt lat="46.90651" lon="4.69537">
        <ele>212.59</ele>
        <time>2013-12-31T09:00:12Z</time>
      </trkpt>
      <trkpt lat="46.90656" lon="4.69536">
        <ele>214.03</ele>
        <time>2013-12-31T09:00:16Z</time>
      </trkpt>
      <trkpt lat="46.90675" lon="4.69524">
        <ele>214.51</ele>
        <time>2013-12-31T09:00:34Z</time>
      </trkpt>
      <trkpt lat="46.90696" lon="4.69508">
        <ele>214.99</ele>
        <time>2013-12-31T09:00:54Z</time>
      </trkpt>
      <trkpt lat="46.9071" lon="4.69497">
        <ele>214.99</ele>
        <time>2013-12-31T09:01:11Z</time>
      </trkpt>
      <trkpt lat="46.90728" lon="4.69482">
        <ele>214.99</ele>
        <time>2013-12-31T09:01:29Z</time>
      </trkpt>
      <trkpt lat="46.90744" lon="4.69472">
        <ele>214.99</ele>
        <time>2013-12-31T09:01:44Z</time>
      </trkpt>
      <trkpt lat="46.90761" lon="4.69463">
        <ele>214.99</ele>
        <time>2013-12-31T09:02:02Z</time>
      </trkpt>
      <trkpt lat="46.90772" lon="4.69458">
        <ele>214.99</ele>
        <time>2013-12-31T09:02:12Z</time>
      </trkpt>
      <trkpt lat="46.90773" lon="4.69453">
        <ele>214.99</ele>
        <time>2013-12-31T09:02:18Z</time>
      </trkpt>
      <trkpt lat="46.90762" lon="4.69434">
        <ele>214.99</ele>
        <time>2013-12-31T09:02:35Z</time>
      </trkpt>
      <trkpt lat="46.90749" lon="4.69411">
        <ele>214.99</ele>
        <time>2013-12-31T09:02:53Z</time>
      </trkpt>
      <trkpt lat="46.90734" lon="4.69381">
        <ele>214.99</ele>
        <time>2013-12-31T09:03:15Z</time>
      </trkpt>
      <trkpt lat="46.90723" lon="4.69353">
        <ele>214.99</ele>
        <time>2013-12-31T09:03:34Z</time>
      </trkpt>
      <trkpt lat="46.90714" lon="4.69329">
        <ele>214.99</ele>
        <time>2013-12-31T09:03:53Z</time>
      </trkpt>
      <trkpt lat="46.90708" lon="4.6931">
        <ele>214.99</ele>
        <time>2013-12-31T09:04:06Z</time>
      </trkpt>
      <trkpt lat="46.90711" lon="4.693">
        <ele>214.99</ele>
        <time>2013-12-31T09:04:22Z</time>
      </trkpt>
      <trkpt lat="46.90713" lon="4.69296">
        <ele>214.99</ele>
        <time>2013-12-31T09:04:29Z</time>
      </trkpt>
      <trkpt lat="46.90715" lon="4.69267">
        <ele>215.95</ele>
        <time>2013-12-31T09:04:47Z</time>
      </trkpt>
      <trkpt lat="46.90723" lon="4.6923">
        <ele>216.91</ele>
        <time>2013-12-31T09:05:09Z</time>
      </trkpt>
      <trkpt lat="46.9073" lon="4.69199">
        <ele>217.88</ele>
        <time>2013-12-31T09:05:28Z</time>
      </trkpt>
      <trkpt lat="46.90735" lon="4.69168">
        <ele>218.36</ele>
        <time>2013-12-31T09:05:47Z</time>
      </trkpt>
      <trkpt lat="46.90743" lon="4.69132">
        <ele>219.8</ele>
        <time>2013-12-31T09:06:09Z</time>
      </trkpt>
      <trkpt lat="46.90747" lon="4.69096">
        <ele>220.76</ele>
        <time>2013-12-31T09:06:29Z</time>
      </trkpt>
      <trkpt lat="46.90751" lon="4.69078">
        <ele>221.24</ele>
        <time>2013-12-31T09:06:40Z</time>
      </trkpt>
      <trkpt lat="46.90756" lon="4.69054">
        <ele>222.2</ele>
        <time>2013-12-31T09:06:56Z</time>
      </trkpt>
      <trkpt lat="46.90761" lon="4.69035">
        <ele>222.2</ele>
        <time>2013-12-31T09:07:07Z</time>
      </trkpt>
      <trkpt lat="46.90765" lon="4.69003">
        <ele>223.16</ele>
        <time>2013-12-31T09:07:26Z</time>
      </trkpt>
      <trkpt lat="46.90778" lon="4.68979">
        <ele>223.16</ele>
        <time>2013-12-31T09:07:44Z</time>
      </trkpt>
      <trkpt lat="46.90795" lon="4.68952">
        <ele>224.12</ele>
        <time>2013-12-31T09:08:04Z</time>
      </trkpt>
      <trkpt lat="46.90814" lon="4.6893">
        <ele>225.57</ele>
        <time>2013-12-31T09:08:24Z</time>
      </trkpt>
      <trkpt lat="46.90827" lon="4.68914">
        <ele>226.05</ele>
        <time>2013-12-31T09:08:40Z</time>
      </trkpt>
      <trkpt lat="46.90846" lon="4.68896">
        <ele>227.49</ele>
        <time>2013-12-31T09:09:00Z</time>
      </trkpt>
      <trkpt lat="46.90868" lon="4.68876">
        <ele>228.93</ele>
        <time>2013-12-31T09:09:22Z</time>
      </trkpt>
      <trkpt lat="46.90887" lon="4.68857">
        <ele>230.37</ele>
        <time>2013-12-31T09:09:42Z</time>
      </trkpt>
      <trkpt lat="46.90907" lon="4.68835">
        <ele>232.3</ele>
        <time>2013-12-31T09:10:04Z</time>
      </trkpt>
      <trkpt lat="46.90922" lon="4.68814">
        <ele>234.22</ele>
        <time>2013-12-31T09:10:24Z</time>
      </trkpt>
      <trkpt lat="46.90933" lon="4.68797">
        <ele>235.18</ele>
        <time>2013-12-31T09:10:42Z</time>
      </trkpt>
      <trkpt lat="46.90947" lon="4.68775">
        <ele>237.1</ele>
        <time>2013-12-31T09:11:01Z</time>
      </trkpt>
      <trkpt lat="46.90961" lon="4.68751">
        <ele>239.02</ele>
        <time>2013-12-31T09:11:21Z</time>
      </trkpt>
      <trkpt lat="46.90974" lon="4.6873">
        <ele>239.99</ele>
        <time>2013-12-31T09:11:39Z</time>
      </trkpt>
      <trkpt lat="46.9099" lon="4.68704">
        <ele>242.39</ele>
        <time>2013-12-31T09:12:01Z</time>
      </trkpt>
      <trkpt lat="46.91005" lon="4.68678">
        <ele>243.83</ele>
        <time>2013-12-31T09:12:22Z</time>
      </trkpt>
      <trkpt lat="46.91019" lon="4.68652">
        <ele>245.27</ele>
        <time>2013-12-31T09:12:42Z</time>
      </trkpt>
      <trkpt lat="46.91035" lon="4.68629">
        <ele>245.75</ele>
        <time>2013-12-31T09:13:02Z</time>
      </trkpt>
      <trkpt lat="46.91047" lon="4.68611">
        <ele>246.72</ele>
        <time>2013-12-31T09:13:18Z</time>
      </trkpt>
      <trkpt lat="46.91068" lon="4.68594">
        <ele>248.16</ele>
        <time>2013-12-31T09:13:40Z</time>
      </trkpt>
      <trkpt lat="46.91091" lon="4.68572">
        <ele>250.56</ele>
        <time>2013-12-31T09:14:04Z</time>
      </trkpt>
      <trkpt lat="46.91108" lon="4.68553">
        <ele>252</ele>
        <time>2013-12-31T09:14:24Z</time>
      </trkpt>
      <trkpt lat="46.91127" lon="4.68534">
        <ele>253.44</ele>
        <time>2013-12-31T09:14:45Z</time>
      </trkpt>
      <trkpt lat="46.91149" lon="4.68511">
        <ele>255.85</ele>
        <time>2013-12-31T09:15:09Z</time>
      </trkpt>
      <trkpt lat="46.91172" lon="4.68491">
        <ele>257.77</ele>
        <time>2013-12-31T09:15:31Z</time>
      </trkpt>
      <trkpt lat="46.91192" lon="4.68475">
        <ele>259.21</ele>
        <time>2013-12-31T09:15:52Z</time>
      </trkpt>
      <trkpt lat="46.91215" lon="4.68459">
        <ele>260.65</ele>
        <time>2013-12-31T09:16:14Z</time>
      </trkpt>
      <trkpt lat="46.91239" lon="4.68443">
        <ele>262.1</ele>
        <time>2013-12-31T09:16:37Z</time>
      </trkpt>
      <trkpt lat="46.91259" lon="4.68432">
        <ele>263.54</ele>
        <time>2013-12-31T09:16:56Z</time>
      </trkpt>
      <trkpt lat="46.91273" lon="4.68416">
        <ele>264.98</ele>
        <time>2013-12-31T09:17:15Z</time>
      </trkpt>
      <trkpt lat="46.91274" lon="4.68413">
        <ele>265.46</ele>
        <time>2013-12-31T09:17:33Z</time>
      </trkpt>
      <trkpt lat="46.91273" lon="4.68416">
        <ele>265.46</ele>
        <time>2013-12-31T09:17:46Z</time>
      </trkpt>
      <trkpt lat="46.91278" lon="4.68414">
        <ele>265.46</ele>
        <time>2013-12-31T09:18:02Z</time>
      </trkpt>
      <trkpt lat="46.91295" lon="4.68401">
        <ele>266.42</ele>
        <time>2013-12-31T09:18:23Z</time>
      </trkpt>
      <trkpt lat="46.91308" lon="4.68394">
        <ele>267.38</ele>
        <time>2013-12-31T09:18:37Z</time>
      </trkpt>
      <trkpt lat="46.91324" lon="4.68378">
        <ele>268.83</ele>
        <time>2013-12-31T09:18:54Z</time>
      </trkpt>
      <trkpt lat="46.91343" lon="4.68369">
        <ele>269.31</ele>
        <time>2013-12-31T09:19:14Z</time>
      </trkpt>
      <trkpt lat="46.91356" lon="4.68364">
        <ele>270.27</ele>
        <time>2013-12-31T09:19:31Z</time>
      </trkpt>
      <trkpt lat="46.91364" lon="4.68364">
        <ele>271.23</ele>
        <time>2013-12-31T09:19:39Z</time>
      </trkpt>
      <trkpt lat="46.91382" lon="4.68355">
        <ele>272.19</ele>
        <time>2013-12-31T09:19:57Z</time>
      </trkpt>
      <trkpt lat="46.91383" lon="4.68355">
        <ele>273.15</ele>
        <time>2013-12-31T09:20:15Z</time>
      </trkpt>
      <trkpt lat="46.91382" lon="4.68357">
        <ele>273.15</ele>
        <time>2013-12-31T09:20:35Z</time>
      </trkpt>
      <trkpt lat="46.91389" lon="4.68352">
        <ele>273.15</ele>
        <time>2013-12-31T09:21:01Z</time>
      </trkpt>
      <trkpt lat="46.91393" lon="4.6835">
        <ele>273.63</ele>
        <time>2013-12-31T09:21:06Z</time>
      </trkpt>
      <trkpt lat="46.91397" lon="4.68347">
        <ele>273.63</ele>
        <time>2013-12-31T09:21:11Z</time>
      </trkpt>
      <trkpt lat="46.91419" lon="4.68335">
        <ele>275.07</ele>
        <time>2013-12-31T09:21:32Z</time>
      </trkpt>
      <trkpt lat="46.91429" lon="4.6833">
        <ele>275.56</ele>
        <time>2013-12-31T09:21:51Z</time>
      </trkpt>
      <trkpt lat="46.91437" lon="4.68327">
        <ele>276.52</ele>
        <time>2013-12-31T09:22:06Z</time>
      </trkpt>
      <trkpt lat="46.91456" lon="4.68328">
        <ele>278.44</ele>
        <time>2013-12-31T09:22:25Z</time>
      </trkpt>
      <trkpt lat="46.91456" lon="4.68331">
        <ele>278.44</ele>
        <time>2013-12-31T09:22:44Z</time>
      </trkpt>
      <trkpt lat="46.91453" lon="4.68328">
        <ele>278.92</ele>
        <time>2013-12-31T09:23:08Z</time>
      </trkpt>
      <trkpt lat="46.91452" lon="4.68322">
        <ele>278.92</ele>
        <time>2013-12-31T09:23:34Z</time>
      </trkpt>
      <trkpt lat="46.9145" lon="4.68319">
        <ele>278.92</ele>
        <time>2013-12-31T09:23:59Z</time>
      </trkpt>
      <trkpt lat="46.91449" lon="4.68318">
        <ele>278.92</ele>
        <time>2013-12-31T09:24:28Z</time>
      </trkpt>
      <trkpt lat="46.91452" lon="4.68324">
        <ele>278.92</ele>
        <time>2013-12-31T09:24:59Z</time>
      </trkpt>
      <trkpt lat="46.91459" lon="4.68335">
        <ele>278.92</ele>
        <time>2013-12-31T09:25:13Z</time>
      </trkpt>
      <trkpt lat="46.9147" lon="4.6836">
        <ele>280.84</ele>
        <time>2013-12-31T09:25:34Z</time>
      </trkpt>
      <trkpt lat="46.91476" lon="4.68369">
        <ele>281.8</ele>
        <time>2013-12-31T09:25:51Z</time>
      </trkpt>
      <trkpt lat="46.91477" lon="4.68373">
        <ele>282.28</ele>
        <time>2013-12-31T09:26:05Z</time>
      </trkpt>
      <trkpt lat="46.9148" lon="4.68384">
        <ele>282.28</ele>
        <time>2013-12-31T09:26:28Z</time>
      </trkpt>
      <trkpt lat="46.91494" lon="4.68415">
        <ele>284.21</ele>
        <time>2013-12-31T09:26:50Z</time>
      </trkpt>
      <trkpt lat="46.91502" lon="4.68445">
        <ele>284.69</ele>
        <time>2013-12-31T09:27:09Z</time>
      </trkpt>
      <trkpt lat="46.91514" lon="4.68471">
        <ele>286.13</ele>
        <time>2013-12-31T09:27:29Z</time>
      </trkpt>
      <trkpt lat="46.91518" lon="4.68472">
        <ele>287.09</ele>
        <time>2013-12-31T09:27:34Z</time>
      </trkpt>
      <trkpt lat="46.91524" lon="4.68465">
        <ele>288.05</ele>
        <time>2013-12-31T09:27:42Z</time>
      </trkpt>
      <trkpt lat="46.91534" lon="4.68429">
        <ele>290.94</ele>
        <time>2013-12-31T09:28:07Z</time>
      </trkpt>
      <trkpt lat="46.91542" lon="4.68399">
        <ele>292.86</ele>
        <time>2013-12-31T09:28:27Z</time>
      </trkpt>
      <trkpt lat="46.91548" lon="4.68385">
        <ele>293.82</ele>
        <time>2013-12-31T09:28:38Z</time>
      </trkpt>
      <trkpt lat="46.91551" lon="4.68371">
        <ele>294.78</ele>
        <time>2013-12-31T09:28:47Z</time>
      </trkpt>
      <trkpt lat="46.91565" lon="4.68345">
        <ele>296.22</ele>
        <time>2013-12-31T09:29:06Z</time>
      </trkpt>
      <trkpt lat="46.91572" lon="4.68342">
        <ele>296.7</ele>
        <time>2013-12-31T09:29:14Z</time>
      </trkpt>
      <trkpt lat="46.91593" lon="4.68334">
        <ele>298.15</ele>
        <time>2013-12-31T09:29:33Z</time>
      </trkpt>
      <trkpt lat="46.9161" lon="4.68329">
        <ele>299.59</ele>
        <time>2013-12-31T09:29:50Z</time>
      </trkpt>
      <trkpt lat="46.91626" lon="4.68324">
        <ele>300.55</ele>
        <time>2013-12-31T09:30:07Z</time>
      </trkpt>
      <trkpt lat="46.91647" lon="4.68309">
        <ele>301.51</ele>
        <time>2013-12-31T09:30:29Z</time>
      </trkpt>
      <trkpt lat="46.91663" lon="4.68292">
        <ele>301.99</ele>
        <time>2013-12-31T09:30:46Z</time>
      </trkpt>
      <trkpt lat="46.91678" lon="4.68268">
        <ele>302.95</ele>
        <time>2013-12-31T09:31:05Z</time>
      </trkpt>
      <trkpt lat="46.91693" lon="4.68241">
        <ele>303.43</ele>
        <time>2013-12-31T09:31:27Z</time>
      </trkpt>
      <trkpt lat="46.91712" lon="4.68214">
        <ele>304.39</ele>
        <time>2013-12-31T09:31:50Z</time>
      </trkpt>
      <trkpt lat="46.91728" lon="4.68194">
        <ele>304.88</ele>
        <time>2013-12-31T09:32:08Z</time>
      </trkpt>
      <trkpt lat="46.91744" lon="4.68172">
        <ele>306.32</ele>
        <time>2013-12-31T09:32:27Z</time>
      </trkpt>
      <trkpt lat="46.91757" lon="4.68148">
        <ele>306.8</ele>
        <time>2013-12-31T09:32:47Z</time>
      </trkpt>
      <trkpt lat="46.91772" lon="4.6812">
        <ele>308.24</ele>
        <time>2013-12-31T09:33:09Z</time>
      </trkpt>
      <trkpt lat="46.91778" lon="4.68107">
        <ele>308.72</ele>
        <time>2013-12-31T09:33:27Z</time>
      </trkpt>
      <trkpt lat="46.91776" lon="4.68107">
        <ele>308.72</ele>
        <time>2013-12-31T09:33:47Z</time>
      </trkpt>
      <trkpt lat="46.91776" lon="4.68106">
        <ele>308.24</ele>
        <time>2013-12-31T09:34:09Z</time>
      </trkpt>
      <trkpt lat="46.91774" lon="4.68108">
        <ele>308.24</ele>
        <time>2013-12-31T09:34:26Z</time>
      </trkpt>
      <trkpt lat="46.91774" lon="4.68109">
        <ele>308.24</ele>
        <time>2013-12-31T09:34:57Z</time>
      </trkpt>
      <trkpt lat="46.91776" lon="4.68106">
        <ele>308.24</ele>
        <time>2013-12-31T09:35:21Z</time>
      </trkpt>
      <trkpt lat="46.91778" lon="4.68103">
        <ele>308.72</ele>
        <time>2013-12-31T09:35:41Z</time>
      </trkpt>
      <trkpt lat="46.91777" lon="4.68103">
        <ele>308.72</ele>
        <time>2013-12-31T09:36:04Z</time>
      </trkpt>
      <trkpt lat="46.91787" lon="4.68091">
        <ele>309.2</ele>
        <time>2013-12-31T09:36:20Z</time>
      </trkpt>
      <trkpt lat="46.91789" lon="4.68094">
        <ele>309.2</ele>
        <time>2013-12-31T09:36:39Z</time>
      </trkpt>
      <trkpt lat="46.91789" lon="4.6809">
        <ele>309.68</ele>
        <time>2013-12-31T09:36:53Z</time>
      </trkpt>
      <trkpt lat="46.918" lon="4.68076">
        <ele>309.68</ele>
        <time>2013-12-31T09:37:08Z</time>
      </trkpt>
      <trkpt lat="46.91814" lon="4.68055">
        <ele>310.64</ele>
        <time>2013-12-31T09:37:27Z</time>
      </trkpt>
      <trkpt lat="46.9183" lon="4.68031">
        <ele>311.6</ele>
        <time>2013-12-31T09:37:48Z</time>
      </trkpt>
      <trkpt lat="46.91841" lon="4.68015">
        <ele>312.57</ele>
        <time>2013-12-31T09:38:05Z</time>
      </trkpt>
      <trkpt lat="46.91859" lon="4.67989">
        <ele>314.01</ele>
        <time>2013-12-31T09:38:28Z</time>
      </trkpt>
      <trkpt lat="46.91874" lon="4.67969">
        <ele>314.97</ele>
        <time>2013-12-31T09:38:47Z</time>
      </trkpt>
      <trkpt lat="46.91891" lon="4.67944">
        <ele>316.89</ele>
        <time>2013-12-31T09:39:09Z</time>
      </trkpt>
      <trkpt lat="46.91908" lon="4.67918">
        <ele>318.33</ele>
        <time>2013-12-31T09:39:31Z</time>
      </trkpt>
      <trkpt lat="46.9192" lon="4.67897">
        <ele>319.3</ele>
        <time>2013-12-31T09:39:49Z</time>
      </trkpt>
      <trkpt lat="46.91937" lon="4.67872">
        <ele>320.74</ele>
        <time>2013-12-31T09:40:09Z</time>
      </trkpt>
      <trkpt lat="46.91952" lon="4.67849">
        <ele>322.18</ele>
        <time>2013-12-31T09:40:29Z</time>
      </trkpt>
      <trkpt lat="46.91964" lon="4.67829">
        <ele>323.62</ele>
        <time>2013-12-31T09:40:46Z</time>
      </trkpt>
      <trkpt lat="46.91975" lon="4.67809">
        <ele>325.06</ele>
        <time>2013-12-31T09:41:04Z</time>
      </trkpt>
      <trkpt lat="46.91977" lon="4.67795">
        <ele>323.62</ele>
        <time>2013-12-31T09:41:18Z</time>
      </trkpt>
      <trkpt lat="46.9198" lon="4.67799">
        <ele>323.62</ele>
        <time>2013-12-31T09:41:29Z</time>
      </trkpt>
      <trkpt lat="46.9199" lon="4.67781">
        <ele>325.06</ele>
        <time>2013-12-31T09:41:45Z</time>
      </trkpt>
      <trkpt lat="46.91999" lon="4.67759">
        <ele>325.54</ele>
        <time>2013-12-31T09:42:03Z</time>
      </trkpt>
      <trkpt lat="46.92006" lon="4.67735">
        <ele>325.54</ele>
        <time>2013-12-31T09:42:22Z</time>
      </trkpt>
      <trkpt lat="46.92009" lon="4.67727">
        <ele>325.54</ele>
        <time>2013-12-31T09:42:30Z</time>
      </trkpt>
      <trkpt lat="46.92018" lon="4.67719">
        <ele>326.02</ele>
        <time>2013-12-31T09:42:45Z</time>
      </trkpt>
      <trkpt lat="46.92011" lon="4.67733">
        <ele>326.02</ele>
        <time>2013-12-31T09:43:03Z</time>
      </trkpt>
      <trkpt lat="46.92004" lon="4.67755">
        <ele>325.54</ele>
        <time>2013-12-31T09:43:20Z</time>
      </trkpt>
      <trkpt lat="46.91993" lon="4.67778">
        <ele>325.54</ele>
        <time>2013-12-31T09:43:39Z</time>
      </trkpt>
      <trkpt lat="46.91981" lon="4.678">
        <ele>323.62</ele>
        <time>2013-12-31T09:44:00Z</time>
      </trkpt>
      <trkpt lat="46.91972" lon="4.67783">
        <ele>322.18</ele>
        <time>2013-12-31T09:44:14Z</time>
      </trkpt>
      <trkpt lat="46.91977" lon="4.67764">
        <ele>321.22</ele>
        <time>2013-12-31T09:44:31Z</time>
      </trkpt>
      <trkpt lat="46.91984" lon="4.67748">
        <ele>320.74</ele>
        <time>2013-12-31T09:44:45Z</time>
      </trkpt>
      <trkpt lat="46.91992" lon="4.67718">
        <ele>320.74</ele>
        <time>2013-12-31T09:45:02Z</time>
      </trkpt>
      <trkpt lat="46.91994" lon="4.67712">
        <ele>320.74</ele>
        <time>2013-12-31T09:45:05Z</time>
      </trkpt>
      <trkpt lat="46.91996" lon="4.67706">
        <ele>320.26</ele>
        <time>2013-12-31T09:45:08Z</time>
      </trkpt>
      <trkpt lat="46.92009" lon="4.67684">
        <ele>322.66</ele>
        <time>2013-12-31T09:45:25Z</time>
      </trkpt>
      <trkpt lat="46.92012" lon="4.67679">
        <ele>322.18</ele>
        <time>2013-12-31T09:45:30Z</time>
      </trkpt>
      <trkpt lat="46.92011" lon="4.67676">
        <ele>323.62</ele>
        <time>2013-12-31T09:45:33Z</time>
      </trkpt>
      <trkpt lat="46.92015" lon="4.67673">
        <ele>323.62</ele>
        <time>2013-12-31T09:45:57Z</time>
      </trkpt>
      <trkpt lat="46.92016" lon="4.67672">
        <ele>324.1</ele>
        <time>2013-12-31T09:46:02Z</time>
      </trkpt>
      <trkpt lat="46.91996" lon="4.67699">
        <ele>321.22</ele>
        <time>2013-12-31T09:46:23Z</time>
      </trkpt>
      <trkpt lat="46.91985" lon="4.67724">
        <ele>320.74</ele>
        <time>2013-12-31T09:46:40Z</time>
      </trkpt>
      <trkpt lat="46.9198" lon="4.67746">
        <ele>320.74</ele>
        <time>2013-12-31T09:46:54Z</time>
      </trkpt>
      <trkpt lat="46.91977" lon="4.67771">
        <ele>321.7</ele>
        <time>2013-12-31T09:47:10Z</time>
      </trkpt>
      <trkpt lat="46.91977" lon="4.67779">
        <ele>322.18</ele>
        <time>2013-12-31T09:47:28Z</time>
      </trkpt>
      <trkpt lat="46.91975" lon="4.6778">
        <ele>322.18</ele>
        <time>2013-12-31T09:47:47Z</time>
      </trkpt>
      <trkpt lat="46.91975" lon="4.67776">
        <ele>321.7</ele>
        <time>2013-12-31T09:48:05Z</time>
      </trkpt>
      <trkpt lat="46.91976" lon="4.67775">
        <ele>321.7</ele>
        <time>2013-12-31T09:48:35Z</time>
      </trkpt>
      <trkpt lat="46.91976" lon="4.67774">
        <ele>321.7</ele>
        <time>2013-12-31T09:49:00Z</time>
      </trkpt>
      <trkpt lat="46.9198" lon="4.67759">
        <ele>321.7</ele>
        <time>2013-12-31T09:49:15Z</time>
      </trkpt>
      <trkpt lat="46.91985" lon="4.67741">
        <ele>320.26</ele>
        <time>2013-12-31T09:49:33Z</time>
      </trkpt>
      <trkpt lat="46.91991" lon="4.67725">
        <ele>320.26</ele>
        <time>2013-12-31T09:49:51Z</time>
      </trkpt>
      <trkpt lat="46.91999" lon="4.67697">
        <ele>320.26</ele>
        <time>2013-12-31T09:50:10Z</time>
      </trkpt>
      <trkpt lat="46.92004" lon="4.6769">
        <ele>321.7</ele>
        <time>2013-12-31T09:50:17Z</time>
      </trkpt>
      <trkpt lat="46.92013" lon="4.67678">
        <ele>323.14</ele>
        <time>2013-12-31T09:50:31Z</time>
      </trkpt>
      <trkpt lat="46.92018" lon="4.67665">
        <ele>324.1</ele>
        <time>2013-12-31T09:50:45Z</time>
      </trkpt>
      <trkpt lat="46.92016" lon="4.67648">
        <ele>325.54</ele>
        <time>2013-12-31T09:50:58Z</time>
      </trkpt>
      <trkpt lat="46.92008" lon="4.6763">
        <ele>328.91</ele>
        <time>2013-12-31T09:51:14Z</time>
      </trkpt>
      <trkpt lat="46.91997" lon="4.67622">
        <ele>330.83</ele>
        <time>2013-12-31T09:51:31Z</time>
      </trkpt>
      <trkpt lat="46.91985" lon="4.67611">
        <ele>332.27</ele>
        <time>2013-12-31T09:51:47Z</time>
      </trkpt>
      <trkpt lat="46.91977" lon="4.67602">
        <ele>334.2</ele>
        <time>2013-12-31T09:52:02Z</time>
      </trkpt>
      <trkpt lat="46.91969" lon="4.67594">
        <ele>335.64</ele>
        <time>2013-12-31T09:52:16Z</time>
      </trkpt>
      <trkpt lat="46.91959" lon="4.67583">
        <ele>337.56</ele>
        <time>2013-12-31T09:52:32Z</time>
      </trkpt>
      <trkpt lat="46.91949" lon="4.67568">
        <ele>339.48</ele>
        <time>2013-12-31T09:52:49Z</time>
      </trkpt>
      <trkpt lat="46.91941" lon="4.67552">
        <ele>339.48</ele>
        <time>2013-12-31T09:53:01Z</time>
      </trkpt>
      <trkpt lat="46.91932" lon="4.67527">
        <ele>339.96</ele>
        <time>2013-12-31T09:53:19Z</time>
      </trkpt>
      <trkpt lat="46.91917" lon="4.67512">
        <ele>339.96</ele>
        <time>2013-12-31T09:53:37Z</time>
      </trkpt>
      <trkpt lat="46.91899" lon="4.67506">
        <ele>340.92</ele>
        <time>2013-12-31T09:53:56Z</time>
      </trkpt>
      <trkpt lat="46.91887" lon="4.67501">
        <ele>341.89</ele>
        <time>2013-12-31T09:54:09Z</time>
      </trkpt>
      <trkpt lat="46.91873" lon="4.67496">
        <ele>342.85</ele>
        <time>2013-12-31T09:54:27Z</time>
      </trkpt>
      <trkpt lat="46.91857" lon="4.67491">
        <ele>344.29</ele>
        <time>2013-12-31T09:54:44Z</time>
      </trkpt>
      <trkpt lat="46.91841" lon="4.6749">
        <ele>345.25</ele>
        <time>2013-12-31T09:55:01Z</time>
      </trkpt>
      <trkpt lat="46.91824" lon="4.67488">
        <ele>346.21</ele>
        <time>2013-12-31T09:55:22Z</time>
      </trkpt>
      <trkpt lat="46.91808" lon="4.6748">
        <ele>346.69</ele>
        <time>2013-12-31T09:55:39Z</time>
      </trkpt>
      <trkpt lat="46.91792" lon="4.67474">
        <ele>346.69</ele>
        <time>2013-12-31T09:55:56Z</time>
      </trkpt>
      <trkpt lat="46.91776" lon="4.67467">
        <ele>346.69</ele>
        <time>2013-12-31T09:56:15Z</time>
      </trkpt>
      <trkpt lat="46.91758" lon="4.67461">
        <ele>346.69</ele>
        <time>2013-12-31T09:56:32Z</time>
      </trkpt>
      <trkpt lat="46.91748" lon="4.67457">
        <ele>346.69</ele>
        <time>2013-12-31T09:56:49Z</time>
      </trkpt>
      <trkpt lat="46.91747" lon="4.67459">
        <ele>346.69</ele>
        <time>2013-12-31T09:57:05Z</time>
      </trkpt>
      <trkpt lat="46.91739" lon="4.67458">
        <ele>346.69</ele>
        <time>2013-12-31T09:57:23Z</time>
      </trkpt>
      <trkpt lat="46.91736" lon="4.6746">
        <ele>346.69</ele>
        <time>2013-12-31T09:57:53Z</time>
      </trkpt>
      <trkpt lat="46.91738" lon="4.67461">
        <ele>346.69</ele>
        <time>2013-12-31T09:58:20Z</time>
      </trkpt>
      <trkpt lat="46.91725" lon="4.67458">
        <ele>346.69</ele>
        <time>2013-12-31T09:58:37Z</time>
      </trkpt>
      <trkpt lat="46.91708" lon="4.67456">
        <ele>347.17</ele>
        <time>2013-12-31T09:58:57Z</time>
      </trkpt>
      <trkpt lat="46.91688" lon="4.67452">
        <ele>348.62</ele>
        <time>2013-12-31T09:59:16Z</time>
      </trkpt>
      <trkpt lat="46.91671" lon="4.67447">
        <ele>350.06</ele>
        <time>2013-12-31T09:59:35Z</time>
      </trkpt>
      <trkpt lat="46.91657" lon="4.67442">
        <ele>351.02</ele>
        <time>2013-12-31T09:59:51Z</time>
      </trkpt>
      <trkpt lat="46.9164" lon="4.67437">
        <ele>352.94</ele>
        <time>2013-12-31T10:00:11Z</time>
      </trkpt>
      <trkpt lat="46.91623" lon="4.67427">
        <ele>355.34</ele>
        <time>2013-12-31T10:00:31Z</time>
      </trkpt>
      <trkpt lat="46.91606" lon="4.6742">
        <ele>357.75</ele>
        <time>2013-12-31T10:00:52Z</time>
      </trkpt>
      <trkpt lat="46.91592" lon="4.67416">
        <ele>361.59</ele>
        <time>2013-12-31T10:01:10Z</time>
      </trkpt>
      <trkpt lat="46.91577" lon="4.67417">
        <ele>363.04</ele>
        <time>2013-12-31T10:01:27Z</time>
      </trkpt>
      <trkpt lat="46.91563" lon="4.67418">
        <ele>365.44</ele>
        <time>2013-12-31T10:01:43Z</time>
      </trkpt>
      <trkpt lat="46.91547" lon="4.6742">
        <ele>366.88</ele>
        <time>2013-12-31T10:02:00Z</time>
      </trkpt>
      <trkpt lat="46.9154" lon="4.67416">
        <ele>368.32</ele>
        <time>2013-12-31T10:02:15Z</time>
      </trkpt>
      <trkpt lat="46.91537" lon="4.67422">
        <ele>368.32</ele>
        <time>2013-12-31T10:02:30Z</time>
      </trkpt>
      <trkpt lat="46.91537" lon="4.67423">
        <ele>367.84</ele>
        <time>2013-12-31T10:02:57Z</time>
      </trkpt>
      <trkpt lat="46.91539" lon="4.67422">
        <ele>367.84</ele>
        <time>2013-12-31T10:03:14Z</time>
      </trkpt>
      <trkpt lat="46.91541" lon="4.67419">
        <ele>367.84</ele>
        <time>2013-12-31T10:03:34Z</time>
      </trkpt>
      <trkpt lat="46.91535" lon="4.67407">
        <ele>369.76</ele>
        <time>2013-12-31T10:03:52Z</time>
      </trkpt>
      <trkpt lat="46.91531" lon="4.67397">
        <ele>370.73</ele>
        <time>2013-12-31T10:04:11Z</time>
      </trkpt>
      <trkpt lat="46.91528" lon="4.67379">
        <ele>373.13</ele>
        <time>2013-12-31T10:04:28Z</time>
      </trkpt>
      <trkpt lat="46.91523" lon="4.67359">
        <ele>375.53</ele>
        <time>2013-12-31T10:04:46Z</time>
      </trkpt>
      <trkpt lat="46.91521" lon="4.67343">
        <ele>376.97</ele>
        <time>2013-12-31T10:05:02Z</time>
      </trkpt>
      <trkpt lat="46.91519" lon="4.67329">
        <ele>378.9</ele>
        <time>2013-12-31T10:05:16Z</time>
      </trkpt>
      <trkpt lat="46.91514" lon="4.67306">
        <ele>381.3</ele>
        <time>2013-12-31T10:05:34Z</time>
      </trkpt>
      <trkpt lat="46.9151" lon="4.67292">
        <ele>383.22</ele>
        <time>2013-12-31T10:05:49Z</time>
      </trkpt>
      <trkpt lat="46.91507" lon="4.67276">
        <ele>385.15</ele>
        <time>2013-12-31T10:06:06Z</time>
      </trkpt>
      <trkpt lat="46.91505" lon="4.67258">
        <ele>388.03</ele>
        <time>2013-12-31T10:06:25Z</time>
      </trkpt>
      <trkpt lat="46.91504" lon="4.6724">
        <ele>390.43</ele>
        <time>2013-12-31T10:06:42Z</time>
      </trkpt>
      <trkpt lat="46.91503" lon="4.67226">
        <ele>392.36</ele>
        <time>2013-12-31T10:06:58Z</time>
      </trkpt>
      <trkpt lat="46.91502" lon="4.67221">
        <ele>393.32</ele>
        <time>2013-12-31T10:07:19Z</time>
      </trkpt>
      <trkpt lat="46.91505" lon="4.67221">
        <ele>393.32</ele>
        <time>2013-12-31T10:07:46Z</time>
      </trkpt>
      <trkpt lat="46.91505" lon="4.67222">
        <ele>392.84</ele>
        <time>2013-12-31T10:08:02Z</time>
      </trkpt>
      <trkpt lat="46.91505" lon="4.67222">
        <ele>392.84</ele>
        <time>2013-12-31T10:08:29Z</time>
      </trkpt>
      <trkpt lat="46.91505" lon="4.67221">
        <ele>392.84</ele>
        <time>2013-12-31T10:08:53Z</time>
      </trkpt>
      <trkpt lat="46.91504" lon="4.67219">
        <ele>393.32</ele>
        <time>2013-12-31T10:09:14Z</time>
      </trkpt>
      <trkpt lat="46.91505" lon="4.67211">
        <ele>394.28</ele>
        <time>2013-12-31T10:09:32Z</time>
      </trkpt>
      <trkpt lat="46.91507" lon="4.67203">
        <ele>395.72</ele>
        <time>2013-12-31T10:09:52Z</time>
      </trkpt>
      <trkpt lat="46.9151" lon="4.67184">
        <ele>398.6</ele>
        <time>2013-12-31T10:10:08Z</time>
      </trkpt>
      <trkpt lat="46.91513" lon="4.67173">
        <ele>400.53</ele>
        <time>2013-12-31T10:10:20Z</time>
      </trkpt>
      <trkpt lat="46.91515" lon="4.67163">
        <ele>401.97</ele>
        <time>2013-12-31T10:10:37Z</time>
      </trkpt>
      <trkpt lat="46.91514" lon="4.67159">
        <ele>402.45</ele>
        <time>2013-12-31T10:10:54Z</time>
      </trkpt>
      <trkpt lat="46.91513" lon="4.67145">
        <ele>404.37</ele>
        <time>2013-12-31T10:11:12Z</time>
      </trkpt>
      <trkpt lat="46.91511" lon="4.67124">
        <ele>406.77</ele>
        <time>2013-12-31T10:11:29Z</time>
      </trkpt>
      <trkpt lat="46.9151" lon="4.67109">
        <ele>408.7</ele>
        <time>2013-12-31T10:11:44Z</time>
      </trkpt>
      <trkpt lat="46.91509" lon="4.67106">
        <ele>408.7</ele>
        <time>2013-12-31T10:11:58Z</time>
      </trkpt>
      <trkpt lat="46.91508" lon="4.67103">
        <ele>409.18</ele>
        <time>2013-12-31T10:12:20Z</time>
      </trkpt>
      <trkpt lat="46.91508" lon="4.67097">
        <ele>410.14</ele>
        <time>2013-12-31T10:12:33Z</time>
      </trkpt>
      <trkpt lat="46.91509" lon="4.67092">
        <ele>410.62</ele>
        <time>2013-12-31T10:12:46Z</time>
      </trkpt>
      <trkpt lat="46.91509" lon="4.67073">
        <ele>412.54</ele>
        <time>2013-12-31T10:13:01Z</time>
      </trkpt>
      <trkpt lat="46.91508" lon="4.67063">
        <ele>413.98</ele>
        <time>2013-12-31T10:13:14Z</time>
      </trkpt>
      <trkpt lat="46.91509" lon="4.67045">
        <ele>415.91</ele>
        <time>2013-12-31T10:13:28Z</time>
      </trkpt>
      <trkpt lat="46.91509" lon="4.67024">
        <ele>418.79</ele>
        <time>2013-12-31T10:13:44Z</time>
      </trkpt>
      <trkpt lat="46.91509" lon="4.67005">
        <ele>421.68</ele>
        <time>2013-12-31T10:14:00Z</time>
      </trkpt>
      <trkpt lat="46.91508" lon="4.66988">
        <ele>424.08</ele>
        <time>2013-12-31T10:14:16Z</time>
      </trkpt>
      <trkpt lat="46.91508" lon="4.66987">
        <ele>424.08</ele>
        <time>2013-12-31T10:14:17Z</time>
      </trkpt>
      <trkpt lat="46.91507" lon="4.66981">
        <ele>425.04</ele>
        <time>2013-12-31T10:14:22Z</time>
      </trkpt>
      <trkpt lat="46.91507" lon="4.66977">
        <ele>425.52</ele>
        <time>2013-12-31T10:14:25Z</time>
      </trkpt>
      <trkpt lat="46.91504" lon="4.66954">
        <ele>428.4</ele>
        <time>2013-12-31T10:14:43Z</time>
      </trkpt>
      <trkpt lat="46.91502" lon="4.66933">
        <ele>430.33</ele>
        <time>2013-12-31T10:15:00Z</time>
      </trkpt>
      <trkpt lat="46.91501" lon="4.66912">
        <ele>431.77</ele>
        <time>2013-12-31T10:15:16Z</time>
      </trkpt>
      <trkpt lat="46.91501" lon="4.66893">
        <ele>434.65</ele>
        <time>2013-12-31T10:15:32Z</time>
      </trkpt>
      <trkpt lat="46.91503" lon="4.66879">
        <ele>436.58</ele>
        <time>2013-12-31T10:15:46Z</time>
      </trkpt>
      <trkpt lat="46.91504" lon="4.66859">
        <ele>438.5</ele>
        <time>2013-12-31T10:16:02Z</time>
      </trkpt>
      <trkpt lat="46.91505" lon="4.66843">
        <ele>440.9</ele>
        <time>2013-12-31T10:16:17Z</time>
      </trkpt>
      <trkpt lat="46.91507" lon="4.66825">
        <ele>442.82</ele>
        <time>2013-12-31T10:16:32Z</time>
      </trkpt>
      <trkpt lat="46.91507" lon="4.66804">
        <ele>444.75</ele>
        <time>2013-12-31T10:16:47Z</time>
      </trkpt>
      <trkpt lat="46.91505" lon="4.66784">
        <ele>446.19</ele>
        <time>2013-12-31T10:17:01Z</time>
      </trkpt>
      <trkpt lat="46.91499" lon="4.66758">
        <ele>448.59</ele>
        <time>2013-12-31T10:17:19Z</time>
      </trkpt>
      <trkpt lat="46.91494" lon="4.66736">
        <ele>450.52</ele>
        <time>2013-12-31T10:17:36Z</time>
      </trkpt>
      <trkpt lat="46.91492" lon="4.66712">
        <ele>451.96</ele>
        <time>2013-12-31T10:17:52Z</time>
      </trkpt>
      <trkpt lat="46.91492" lon="4.66711">
        <ele>451.96</ele>
        <time>2013-12-31T10:17:53Z</time>
      </trkpt>
      <trkpt lat="46.91491" lon="4.66688">
        <ele>454.36</ele>
        <time>2013-12-31T10:18:11Z</time>
      </trkpt>
      <trkpt lat="46.91491" lon="4.66688">
        <ele>454.84</ele>
        <time>2013-12-31T10:18:12Z</time>
      </trkpt>
      <trkpt lat="46.91492" lon="4.66684">
        <ele>455.32</ele>
        <time>2013-12-31T10:18:15Z</time>
      </trkpt>
      <trkpt lat="46.91494" lon="4.66661">
        <ele>457.72</ele>
        <time>2013-12-31T10:18:33Z</time>
      </trkpt>
      <trkpt lat="46.91499" lon="4.6665">
        <ele>459.17</ele>
        <time>2013-12-31T10:18:44Z</time>
      </trkpt>
      <trkpt lat="46.91508" lon="4.66633">
        <ele>461.09</ele>
        <time>2013-12-31T10:19:00Z</time>
      </trkpt>
      <trkpt lat="46.91514" lon="4.66623">
        <ele>461.57</ele>
        <time>2013-12-31T10:19:10Z</time>
      </trkpt>
      <trkpt lat="46.91527" lon="4.6661">
        <ele>463.97</ele>
        <time>2013-12-31T10:19:28Z</time>
      </trkpt>
      <trkpt lat="46.91539" lon="4.66601">
        <ele>465.42</ele>
        <time>2013-12-31T10:19:43Z</time>
      </trkpt>
      <trkpt lat="46.9155" lon="4.66599">
        <ele>466.38</ele>
        <time>2013-12-31T10:19:55Z</time>
      </trkpt>
      <trkpt lat="46.91564" lon="4.66587">
        <ele>468.3</ele>
        <time>2013-12-31T10:20:13Z</time>
      </trkpt>
      <trkpt lat="46.91576" lon="4.66567">
        <ele>469.26</ele>
        <time>2013-12-31T10:20:31Z</time>
      </trkpt>
      <trkpt lat="46.91587" lon="4.66549">
        <ele>470.22</ele>
        <time>2013-12-31T10:20:48Z</time>
      </trkpt>
      <trkpt lat="46.91603" lon="4.6653">
        <ele>470.7</ele>
        <time>2013-12-31T10:21:07Z</time>
      </trkpt>
      <trkpt lat="46.91619" lon="4.66509">
        <ele>472.14</ele>
        <time>2013-12-31T10:21:27Z</time>
      </trkpt>
      <trkpt lat="46.91632" lon="4.66489">
        <ele>473.11</ele>
        <time>2013-12-31T10:21:45Z</time>
      </trkpt>
      <trkpt lat="46.91646" lon="4.66471">
        <ele>473.11</ele>
        <time>2013-12-31T10:22:03Z</time>
      </trkpt>
      <trkpt lat="46.91661" lon="4.66458">
        <ele>473.59</ele>
        <time>2013-12-31T10:22:20Z</time>
      </trkpt>
      <trkpt lat="46.91679" lon="4.66439">
        <ele>474.07</ele>
        <time>2013-12-31T10:22:41Z</time>
      </trkpt>
      <trkpt lat="46.91694" lon="4.66425">
        <ele>474.07</ele>
        <time>2013-12-31T10:22:59Z</time>
      </trkpt>
      <trkpt lat="46.91711" lon="4.66409">
        <ele>474.07</ele>
        <time>2013-12-31T10:23:17Z</time>
      </trkpt>
      <trkpt lat="46.91725" lon="4.66394">
        <ele>474.07</ele>
        <time>2013-12-31T10:23:35Z</time>
      </trkpt>
      <trkpt lat="46.91731" lon="4.66389">
        <ele>472.63</ele>
        <time>2013-12-31T10:23:42Z</time>
      </trkpt>
      <trkpt lat="46.91744" lon="4.66374">
        <ele>471.66</ele>
        <time>2013-12-31T10:24:01Z</time>
      </trkpt>
      <trkpt lat="46.91752" lon="4.6637">
        <ele>471.18</ele>
        <time>2013-12-31T10:24:17Z</time>
      </trkpt>
      <trkpt lat="46.91752" lon="4.66372">
        <ele>470.7</ele>
        <time>2013-12-31T10:24:43Z</time>
      </trkpt>
      <trkpt lat="46.91751" lon="4.6637">
        <ele>470.7</ele>
        <time>2013-12-31T10:25:08Z</time>
      </trkpt>
      <trkpt lat="46.9175" lon="4.66367">
        <ele>470.7</ele>
        <time>2013-12-31T10:25:40Z</time>
      </trkpt>
      <trkpt lat="46.91751" lon="4.66369">
        <ele>470.7</ele>
        <time>2013-12-31T10:25:42Z</time>
      </trkpt>
      <trkpt lat="46.91762" lon="4.66394">
        <ele>472.63</ele>
        <time>2013-12-31T10:26:01Z</time>
      </trkpt>
      <trkpt lat="46.91771" lon="4.66412">
        <ele>474.55</ele>
        <time>2013-12-31T10:26:17Z</time>
      </trkpt>
      <trkpt lat="46.91778" lon="4.6643">
        <ele>475.99</ele>
        <time>2013-12-31T10:26:33Z</time>
      </trkpt>
      <trkpt lat="46.91785" lon="4.66449">
        <ele>477.91</ele>
        <time>2013-12-31T10:26:49Z</time>
      </trkpt>
      <trkpt lat="46.91785" lon="4.66451">
        <ele>477.91</ele>
        <time>2013-12-31T10:26:50Z</time>
      </trkpt>
      <trkpt lat="46.91796" lon="4.66473">
        <ele>478.87</ele>
        <time>2013-12-31T10:27:09Z</time>
      </trkpt>
      <trkpt lat="46.91807" lon="4.66493">
        <ele>480.32</ele>
        <time>2013-12-31T10:27:28Z</time>
      </trkpt>
      <trkpt lat="46.91821" lon="4.66512">
        <ele>481.28</ele>
        <time>2013-12-31T10:27:47Z</time>
      </trkpt>
      <trkpt lat="46.91834" lon="4.66521">
        <ele>481.76</ele>
        <time>2013-12-31T10:28:05Z</time>
      </trkpt>
      <trkpt lat="46.91836" lon="4.66524">
        <ele>482.24</ele>
        <time>2013-12-31T10:28:20Z</time>
      </trkpt>
      <trkpt lat="46.9184" lon="4.66527">
        <ele>482.24</ele>
        <time>2013-12-31T10:28:37Z</time>
      </trkpt>
      <trkpt lat="46.91852" lon="4.66535">
        <ele>482.24</ele>
        <time>2013-12-31T10:28:53Z</time>
      </trkpt>
      <trkpt lat="46.91864" lon="4.66543">
        <ele>482.24</ele>
        <time>2013-12-31T10:29:08Z</time>
      </trkpt>
      <trkpt lat="46.91881" lon="4.66563">
        <ele>482.72</ele>
        <time>2013-12-31T10:29:30Z</time>
      </trkpt>
      <trkpt lat="46.91893" lon="4.66586">
        <ele>483.68</ele>
        <time>2013-12-31T10:29:50Z</time>
      </trkpt>
      <trkpt lat="46.919" lon="4.66611">
        <ele>484.64</ele>
        <time>2013-12-31T10:30:09Z</time>
      </trkpt>
      <trkpt lat="46.919" lon="4.66635">
        <ele>485.6</ele>
        <time>2013-12-31T10:30:26Z</time>
      </trkpt>
      <trkpt lat="46.91895" lon="4.6666">
        <ele>486.56</ele>
        <time>2013-12-31T10:30:44Z</time>
      </trkpt>
      <trkpt lat="46.91896" lon="4.66682">
        <ele>488.01</ele>
        <time>2013-12-31T10:31:01Z</time>
      </trkpt>
      <trkpt lat="46.91898" lon="4.66698">
        <ele>489.45</ele>
        <time>2013-12-31T10:31:12Z</time>
      </trkpt>
      <trkpt lat="46.91903" lon="4.6672">
        <ele>490.89</ele>
        <time>2013-12-31T10:31:29Z</time>
      </trkpt>
      <trkpt lat="46.91906" lon="4.66739">
        <ele>492.81</ele>
        <time>2013-12-31T10:31:45Z</time>
      </trkpt>
      <trkpt lat="46.91909" lon="4.66756">
        <ele>495.22</ele>
        <time>2013-12-31T10:32:00Z</time>
      </trkpt>
      <trkpt lat="46.91911" lon="4.66778">
        <ele>497.62</ele>
        <time>2013-12-31T10:32:19Z</time>
      </trkpt>
      <trkpt lat="46.91913" lon="4.66793">
        <ele>499.54</ele>
        <time>2013-12-31T10:32:33Z</time>
      </trkpt>
      <trkpt lat="46.91916" lon="4.66809">
        <ele>501.95</ele>
        <time>2013-12-31T10:32:51Z</time>
      </trkpt>
      <trkpt lat="46.91917" lon="4.66825">
        <ele>504.83</ele>
        <time>2013-12-31T10:33:07Z</time>
      </trkpt>
      <trkpt lat="46.91918" lon="4.66837">
        <ele>507.23</ele>
        <time>2013-12-31T10:33:22Z</time>
      </trkpt>
      <trkpt lat="46.91922" lon="4.66848">
        <ele>510.12</ele>
        <time>2013-12-31T10:33:38Z</time>
      </trkpt>
      <trkpt lat="46.91925" lon="4.66858">
        <ele>512.52</ele>
        <time>2013-12-31T10:33:52Z</time>
      </trkpt>
      <trkpt lat="46.91928" lon="4.66867">
        <ele>515.4</ele>
        <time>2013-12-31T10:34:06Z</time>
      </trkpt>
      <trkpt lat="46.9193" lon="4.66878">
        <ele>516.85</ele>
        <time>2013-12-31T10:34:19Z</time>
      </trkpt>
      <trkpt lat="46.91929" lon="4.66879">
        <ele>518.29</ele>
        <time>2013-12-31T10:34:22Z</time>
      </trkpt>
      <trkpt lat="46.91929" lon="4.66891">
        <ele>518.77</ele>
        <time>2013-12-31T10:34:35Z</time>
      </trkpt>
      <trkpt lat="46.91931" lon="4.66904">
        <ele>521.17</ele>
        <time>2013-12-31T10:34:49Z</time>
      </trkpt>
      <trkpt lat="46.91938" lon="4.66912">
        <ele>523.09</ele>
        <time>2013-12-31T10:35:04Z</time>
      </trkpt>
      <trkpt lat="46.91946" lon="4.66918">
        <ele>525.98</ele>
        <time>2013-12-31T10:35:20Z</time>
      </trkpt>
      <trkpt lat="46.91953" lon="4.66928">
        <ele>527.42</ele>
        <time>2013-12-31T10:35:34Z</time>
      </trkpt>
      <trkpt lat="46.91957" lon="4.66933">
        <ele>527.9</ele>
        <time>2013-12-31T10:35:46Z</time>
      </trkpt>
      <trkpt lat="46.91958" lon="4.66934">
        <ele>528.38</ele>
        <time>2013-12-31T10:36:08Z</time>
      </trkpt>
      <trkpt lat="46.91965" lon="4.66936">
        <ele>527.42</ele>
        <time>2013-12-31T10:36:23Z</time>
      </trkpt>
      <trkpt lat="46.91981" lon="4.66948">
        <ele>527.42</ele>
        <time>2013-12-31T10:36:43Z</time>
      </trkpt>
      <trkpt lat="46.91986" lon="4.6695">
        <ele>527.42</ele>
        <time>2013-12-31T10:37:00Z</time>
      </trkpt>
      <trkpt lat="46.91999" lon="4.66962">
        <ele>526.94</ele>
        <time>2013-12-31T10:37:18Z</time>
      </trkpt>
      <trkpt lat="46.92014" lon="4.66974">
        <ele>526.46</ele>
        <time>2013-12-31T10:37:39Z</time>
      </trkpt>
      <trkpt lat="46.92019" lon="4.66976">
        <ele>525.98</ele>
        <time>2013-12-31T10:37:53Z</time>
      </trkpt>
      <trkpt lat="46.92015" lon="4.66973">
        <ele>526.94</ele>
        <time>2013-12-31T10:38:08Z</time>
      </trkpt>
      <trkpt lat="46.92016" lon="4.66972">
        <ele>528.38</ele>
        <time>2013-12-31T10:38:11Z</time>
      </trkpt>
      <trkpt lat="46.92016" lon="4.66973">
        <ele>527.42</ele>
        <time>2013-12-31T10:38:36Z</time>
      </trkpt>
      <trkpt lat="46.92014" lon="4.66972">
        <ele>525.98</ele>
        <time>2013-12-31T10:38:41Z</time>
      </trkpt>
      <trkpt lat="46.92007" lon="4.66966">
        <ele>527.42</ele>
        <time>2013-12-31T10:38:50Z</time>
      </trkpt>
      <trkpt lat="46.92005" lon="4.66965">
        <ele>526.46</ele>
        <time>2013-12-31T10:38:52Z</time>
      </trkpt>
      <trkpt lat="46.91994" lon="4.66957">
        <ele>525.98</ele>
        <time>2013-12-31T10:39:06Z</time>
      </trkpt>
      <trkpt lat="46.91986" lon="4.66951">
        <ele>527.9</ele>
        <time>2013-12-31T10:39:25Z</time>
      </trkpt>
      <trkpt lat="46.91982" lon="4.66948">
        <ele>528.38</ele>
        <time>2013-12-31T10:39:42Z</time>
      </trkpt>
      <trkpt lat="46.91973" lon="4.66943">
        <ele>527.9</ele>
        <time>2013-12-31T10:39:56Z</time>
      </trkpt>
      <trkpt lat="46.91968" lon="4.66941">
        <ele>526.94</ele>
        <time>2013-12-31T10:40:01Z</time>
      </trkpt>
      <trkpt lat="46.91957" lon="4.66933">
        <ele>527.9</ele>
        <time>2013-12-31T10:40:20Z</time>
      </trkpt>
      <trkpt lat="46.91959" lon="4.66934">
        <ele>526.94</ele>
        <time>2013-12-31T10:40:27Z</time>
      </trkpt>
      <trkpt lat="46.91962" lon="4.66937">
        <ele>526.46</ele>
        <time>2013-12-31T10:40:45Z</time>
      </trkpt>
      <trkpt lat="46.91962" lon="4.66936">
        <ele>527.9</ele>
        <time>2013-12-31T10:40:47Z</time>
      </trkpt>
      <trkpt lat="46.91959" lon="4.66931">
        <ele>526.46</ele>
        <time>2013-12-31T10:40:56Z</time>
      </trkpt>
      <trkpt lat="46.91958" lon="4.66933">
        <ele>528.38</ele>
        <time>2013-12-31T10:41:05Z</time>
      </trkpt>
      <trkpt lat="46.91958" lon="4.66934">
        <ele>527.42</ele>
        <time>2013-12-31T10:41:07Z</time>
      </trkpt>
      <trkpt lat="46.91957" lon="4.66933">
        <ele>527.42</ele>
        <time>2013-12-31T10:41:26Z</time>
      </trkpt>
      <trkpt lat="46.91954" lon="4.66927">
        <ele>527.42</ele>
        <time>2013-12-31T10:41:44Z</time>
      </trkpt>
      <trkpt lat="46.9195" lon="4.66924">
        <ele>525.02</ele>
        <time>2013-12-31T10:41:59Z</time>
      </trkpt>
      <trkpt lat="46.91947" lon="4.66919">
        <ele>525.98</ele>
        <time>2013-12-31T10:42:16Z</time>
      </trkpt>
      <trkpt lat="46.91948" lon="4.66919">
        <ele>525.98</ele>
        <time>2013-12-31T10:42:38Z</time>
      </trkpt>
      <trkpt lat="46.91937" lon="4.66912">
        <ele>523.09</ele>
        <time>2013-12-31T10:42:54Z</time>
      </trkpt>
      <trkpt lat="46.9193" lon="4.66903">
        <ele>521.17</ele>
        <time>2013-12-31T10:43:10Z</time>
      </trkpt>
      <trkpt lat="46.91928" lon="4.66891">
        <ele>518.77</ele>
        <time>2013-12-31T10:43:21Z</time>
      </trkpt>
      <trkpt lat="46.91927" lon="4.66871">
        <ele>515.88</ele>
        <time>2013-12-31T10:43:41Z</time>
      </trkpt>
      <trkpt lat="46.91924" lon="4.66859">
        <ele>513.48</ele>
        <time>2013-12-31T10:44:00Z</time>
      </trkpt>
      <trkpt lat="46.91921" lon="4.6685">
        <ele>510.12</ele>
        <time>2013-12-31T10:44:15Z</time>
      </trkpt>
      <trkpt lat="46.91917" lon="4.66834">
        <ele>507.23</ele>
        <time>2013-12-31T10:44:33Z</time>
      </trkpt>
      <trkpt lat="46.91916" lon="4.6682">
        <ele>504.35</ele>
        <time>2013-12-31T10:44:49Z</time>
      </trkpt>
      <trkpt lat="46.91914" lon="4.66805">
        <ele>500.98</ele>
        <time>2013-12-31T10:45:04Z</time>
      </trkpt>
      <trkpt lat="46.91911" lon="4.66788">
        <ele>498.1</ele>
        <time>2013-12-31T10:45:20Z</time>
      </trkpt>
      <trkpt lat="46.91907" lon="4.66764">
        <ele>494.74</ele>
        <time>2013-12-31T10:45:42Z</time>
      </trkpt>
      <trkpt lat="46.91904" lon="4.66742">
        <ele>492.33</ele>
        <time>2013-12-31T10:46:01Z</time>
      </trkpt>
      <trkpt lat="46.91902" lon="4.66721">
        <ele>489.45</ele>
        <time>2013-12-31T10:46:21Z</time>
      </trkpt>
      <trkpt lat="46.91899" lon="4.6671">
        <ele>488.49</ele>
        <time>2013-12-31T10:46:31Z</time>
      </trkpt>
      <trkpt lat="46.91895" lon="4.66687">
        <ele>487.53</ele>
        <time>2013-12-31T10:46:48Z</time>
      </trkpt>
      <trkpt lat="46.91893" lon="4.6666">
        <ele>485.6</ele>
        <time>2013-12-31T10:47:06Z</time>
      </trkpt>
      <trkpt lat="46.91898" lon="4.66635">
        <ele>484.64</ele>
        <time>2013-12-31T10:47:23Z</time>
      </trkpt>
      <trkpt lat="46.91897" lon="4.66612">
        <ele>482.72</ele>
        <time>2013-12-31T10:47:41Z</time>
      </trkpt>
      <trkpt lat="46.91892" lon="4.66589">
        <ele>482.24</ele>
        <time>2013-12-31T10:47:59Z</time>
      </trkpt>
      <trkpt lat="46.91882" lon="4.66567">
        <ele>481.28</ele>
        <time>2013-12-31T10:48:18Z</time>
      </trkpt>
      <trkpt lat="46.9187" lon="4.6655">
        <ele>480.8</ele>
        <time>2013-12-31T10:48:36Z</time>
      </trkpt>
      <trkpt lat="46.91854" lon="4.66537">
        <ele>480.8</ele>
        <time>2013-12-31T10:48:56Z</time>
      </trkpt>
      <trkpt lat="46.91837" lon="4.66527">
        <ele>480.32</ele>
        <time>2013-12-31T10:49:15Z</time>
      </trkpt>
      <trkpt lat="46.9182" lon="4.66513">
        <ele>480.32</ele>
        <time>2013-12-31T10:49:34Z</time>
      </trkpt>
      <trkpt lat="46.91804" lon="4.66489">
        <ele>479.35</ele>
        <time>2013-12-31T10:49:56Z</time>
      </trkpt>
      <trkpt lat="46.91792" lon="4.66467">
        <ele>477.91</ele>
        <time>2013-12-31T10:50:16Z</time>
      </trkpt>
      <trkpt lat="46.91782" lon="4.66446">
        <ele>476.47</ele>
        <time>2013-12-31T10:50:34Z</time>
      </trkpt>
      <trkpt lat="46.91772" lon="4.66422">
        <ele>474.55</ele>
        <time>2013-12-31T10:50:55Z</time>
      </trkpt>
      <trkpt lat="46.91762" lon="4.66399">
        <ele>471.66</ele>
        <time>2013-12-31T10:51:14Z</time>
      </trkpt>
      <trkpt lat="46.9175" lon="4.66372">
        <ele>470.22</ele>
        <time>2013-12-31T10:51:38Z</time>
      </trkpt>
      <trkpt lat="46.91748" lon="4.6637">
        <ele>469.74</ele>
        <time>2013-12-31T10:51:41Z</time>
      </trkpt>
      <trkpt lat="46.91742" lon="4.66373">
        <ele>469.74</ele>
        <time>2013-12-31T10:51:49Z</time>
      </trkpt>
      <trkpt lat="46.91732" lon="4.6639">
        <ele>469.74</ele>
        <time>2013-12-31T10:52:06Z</time>
      </trkpt>
      <trkpt lat="46.91719" lon="4.66402">
        <ele>471.18</ele>
        <time>2013-12-31T10:52:22Z</time>
      </trkpt>
      <trkpt lat="46.91704" lon="4.66419">
        <ele>471.66</ele>
        <time>2013-12-31T10:52:41Z</time>
      </trkpt>
      <trkpt lat="46.91692" lon="4.66432">
        <ele>472.14</ele>
        <time>2013-12-31T10:52:56Z</time>
      </trkpt>
      <trkpt lat="46.91679" lon="4.66442">
        <ele>472.14</ele>
        <time>2013-12-31T10:53:10Z</time>
      </trkpt>
      <trkpt lat="46.91664" lon="4.66457">
        <ele>472.14</ele>
        <time>2013-12-31T10:53:29Z</time>
      </trkpt>
      <trkpt lat="46.91645" lon="4.66478">
        <ele>472.14</ele>
        <time>2013-12-31T10:53:51Z</time>
      </trkpt>
      <trkpt lat="46.91637" lon="4.66486">
        <ele>472.14</ele>
        <time>2013-12-31T10:54:01Z</time>
      </trkpt>
      <trkpt lat="46.91623" lon="4.66508">
        <ele>470.7</ele>
        <time>2013-12-31T10:54:21Z</time>
      </trkpt>
      <trkpt lat="46.91607" lon="4.66529">
        <ele>470.22</ele>
        <time>2013-12-31T10:54:41Z</time>
      </trkpt>
      <trkpt lat="46.91589" lon="4.66551">
        <ele>469.26</ele>
        <time>2013-12-31T10:55:02Z</time>
      </trkpt>
      <trkpt lat="46.91579" lon="4.66564">
        <ele>468.78</ele>
        <time>2013-12-31T10:55:15Z</time>
      </trkpt>
      <trkpt lat="46.91563" lon="4.66591">
        <ele>467.82</ele>
        <time>2013-12-31T10:55:38Z</time>
      </trkpt>
      <trkpt lat="46.91551" lon="4.66602">
        <ele>466.38</ele>
        <time>2013-12-31T10:55:53Z</time>
      </trkpt>
      <trkpt lat="46.91544" lon="4.66603">
        <ele>466.38</ele>
        <time>2013-12-31T10:56:03Z</time>
      </trkpt>
      <trkpt lat="46.91537" lon="4.66602">
        <ele>464.93</ele>
        <time>2013-12-31T10:56:19Z</time>
      </trkpt>
      <trkpt lat="46.91536" lon="4.666">
        <ele>464.93</ele>
        <time>2013-12-31T10:56:34Z</time>
      </trkpt>
      <trkpt lat="46.91531" lon="4.66603">
        <ele>464.45</ele>
        <time>2013-12-31T10:56:39Z</time>
      </trkpt>
      <trkpt lat="46.91513" lon="4.6662">
        <ele>462.05</ele>
        <time>2013-12-31T10:56:59Z</time>
      </trkpt>
      <trkpt lat="46.91503" lon="4.6664">
        <ele>460.13</ele>
        <time>2013-12-31T10:57:16Z</time>
      </trkpt>
      <trkpt lat="46.91494" lon="4.66665">
        <ele>457.72</ele>
        <time>2013-12-31T10:57:35Z</time>
      </trkpt>
      <trkpt lat="46.91492" lon="4.66673">
        <ele>456.28</ele>
        <time>2013-12-31T10:57:52Z</time>
      </trkpt>
      <trkpt lat="46.91491" lon="4.66697">
        <ele>454.36</ele>
        <time>2013-12-31T10:58:10Z</time>
      </trkpt>
      <trkpt lat="46.9149" lon="4.66713">
        <ele>452.92</ele>
        <time>2013-12-31T10:58:23Z</time>
      </trkpt>
      <trkpt lat="46.91492" lon="4.66735">
        <ele>451</ele>
        <time>2013-12-31T10:58:39Z</time>
      </trkpt>
      <trkpt lat="46.91493" lon="4.66742">
        <ele>450.03</ele>
        <time>2013-12-31T10:58:45Z</time>
      </trkpt>
      <trkpt lat="46.91497" lon="4.66756">
        <ele>449.55</ele>
        <time>2013-12-31T10:58:56Z</time>
      </trkpt>
      <trkpt lat="46.91499" lon="4.66771">
        <ele>448.11</ele>
        <time>2013-12-31T10:59:07Z</time>
      </trkpt>
      <trkpt lat="46.91504" lon="4.66803">
        <ele>445.71</ele>
        <time>2013-12-31T10:59:29Z</time>
      </trkpt>
      <trkpt lat="46.91504" lon="4.66827">
        <ele>443.31</ele>
        <time>2013-12-31T10:59:47Z</time>
      </trkpt>
      <trkpt lat="46.91502" lon="4.66851">
        <ele>439.94</ele>
        <time>2013-12-31T11:00:05Z</time>
      </trkpt>
      <trkpt lat="46.91501" lon="4.66877">
        <ele>437.06</ele>
        <time>2013-12-31T11:00:23Z</time>
      </trkpt>
      <trkpt lat="46.91501" lon="4.6688">
        <ele>437.06</ele>
        <time>2013-12-31T11:00:25Z</time>
      </trkpt>
      <trkpt lat="46.91499" lon="4.66896">
        <ele>434.17</ele>
        <time>2013-12-31T11:00:39Z</time>
      </trkpt>
      <trkpt lat="46.91499" lon="4.66919">
        <ele>432.25</ele>
        <time>2013-12-31T11:00:57Z</time>
      </trkpt>
      <trkpt lat="46.91502" lon="4.66947">
        <ele>429.37</ele>
        <time>2013-12-31T11:01:17Z</time>
      </trkpt>
      <trkpt lat="46.91504" lon="4.66958">
        <ele>427.44</ele>
        <time>2013-12-31T11:01:32Z</time>
      </trkpt>
      <trkpt lat="46.91503" lon="4.66967">
        <ele>426.48</ele>
        <time>2013-12-31T11:01:47Z</time>
      </trkpt>
      <trkpt lat="46.91505" lon="4.6699">
        <ele>423.6</ele>
        <time>2013-12-31T11:02:06Z</time>
      </trkpt>
      <trkpt lat="46.91507" lon="4.67013">
        <ele>420.71</ele>
        <time>2013-12-31T11:02:24Z</time>
      </trkpt>
      <trkpt lat="46.91506" lon="4.67033">
        <ele>418.31</ele>
        <time>2013-12-31T11:02:43Z</time>
      </trkpt>
      <trkpt lat="46.91507" lon="4.67054">
        <ele>415.43</ele>
        <time>2013-12-31T11:03:01Z</time>
      </trkpt>
      <trkpt lat="46.91507" lon="4.67069">
        <ele>413.98</ele>
        <time>2013-12-31T11:03:14Z</time>
      </trkpt>
      <trkpt lat="46.91506" lon="4.6709">
        <ele>411.58</ele>
        <time>2013-12-31T11:03:30Z</time>
      </trkpt>
      <trkpt lat="46.91508" lon="4.67101">
        <ele>410.62</ele>
        <time>2013-12-31T11:03:46Z</time>
      </trkpt>
      <trkpt lat="46.9151" lon="4.67115">
        <ele>408.7</ele>
        <time>2013-12-31T11:04:04Z</time>
      </trkpt>
      <trkpt lat="46.91512" lon="4.67133">
        <ele>406.77</ele>
        <time>2013-12-31T11:04:22Z</time>
      </trkpt>
      <trkpt lat="46.91512" lon="4.67145">
        <ele>405.33</ele>
        <time>2013-12-31T11:04:31Z</time>
      </trkpt>
      <trkpt lat="46.91512" lon="4.67164">
        <ele>401.97</ele>
        <time>2013-12-31T11:04:48Z</time>
      </trkpt>
      <trkpt lat="46.9151" lon="4.67182">
        <ele>399.08</ele>
        <time>2013-12-31T11:05:04Z</time>
      </trkpt>
      <trkpt lat="46.91509" lon="4.67192">
        <ele>398.12</ele>
        <time>2013-12-31T11:05:16Z</time>
      </trkpt>
      <trkpt lat="46.91506" lon="4.6721">
        <ele>395.72</ele>
        <time>2013-12-31T11:05:33Z</time>
      </trkpt>
      <trkpt lat="46.915" lon="4.67221">
        <ele>392.84</ele>
        <time>2013-12-31T11:05:51Z</time>
      </trkpt>
      <trkpt lat="46.91483" lon="4.67215">
        <ele>389.95</ele>
        <time>2013-12-31T11:06:12Z</time>
      </trkpt>
      <trkpt lat="46.91466" lon="4.67212">
        <ele>387.07</ele>
        <time>2013-12-31T11:06:31Z</time>
      </trkpt>
      <trkpt lat="46.91447" lon="4.6721">
        <ele>383.7</ele>
        <time>2013-12-31T11:06:53Z</time>
      </trkpt>
      <trkpt lat="46.91436" lon="4.6721">
        <ele>381.78</ele>
        <time>2013-12-31T11:07:09Z</time>
      </trkpt>
      <trkpt lat="46.91423" lon="4.67215">
        <ele>379.38</ele>
        <time>2013-12-31T11:07:26Z</time>
      </trkpt>
      <trkpt lat="46.91408" lon="4.67215">
        <ele>376.01</ele>
        <time>2013-12-31T11:07:45Z</time>
      </trkpt>
      <trkpt lat="46.91393" lon="4.67215">
        <ele>373.61</ele>
        <time>2013-12-31T11:08:03Z</time>
      </trkpt>
      <trkpt lat="46.91392" lon="4.67218">
        <ele>373.13</ele>
        <time>2013-12-31T11:08:20Z</time>
      </trkpt>
      <trkpt lat="46.9139" lon="4.67218">
        <ele>372.17</ele>
        <time>2013-12-31T11:08:34Z</time>
      </trkpt>
      <trkpt lat="46.91387" lon="4.67216">
        <ele>371.69</ele>
        <time>2013-12-31T11:08:56Z</time>
      </trkpt>
      <trkpt lat="46.91374" lon="4.67217">
        <ele>368.32</ele>
        <time>2013-12-31T11:09:15Z</time>
      </trkpt>
      <trkpt lat="46.91359" lon="4.67221">
        <ele>365.44</ele>
        <time>2013-12-31T11:09:34Z</time>
      </trkpt>
      <trkpt lat="46.91346" lon="4.67219">
        <ele>362.55</ele>
        <time>2013-12-31T11:09:53Z</time>
      </trkpt>
      <trkpt lat="46.91332" lon="4.67218">
        <ele>360.63</ele>
        <time>2013-12-31T11:10:11Z</time>
      </trkpt>
      <trkpt lat="46.9133" lon="4.67218">
        <ele>360.15</ele>
        <time>2013-12-31T11:10:14Z</time>
      </trkpt>
      <trkpt lat="46.9132" lon="4.67217">
        <ele>358.23</ele>
        <time>2013-12-31T11:10:27Z</time>
      </trkpt>
      <trkpt lat="46.9132" lon="4.67211">
        <ele>359.19</ele>
        <time>2013-12-31T11:10:45Z</time>
      </trkpt>
      <trkpt lat="46.91316" lon="4.67214">
        <ele>357.75</ele>
        <time>2013-12-31T11:11:00Z</time>
      </trkpt>
      <trkpt lat="46.91312" lon="4.67218">
        <ele>357.27</ele>
        <time>2013-12-31T11:11:10Z</time>
      </trkpt>
      <trkpt lat="46.913" lon="4.67219">
        <ele>354.38</ele>
        <time>2013-12-31T11:11:26Z</time>
      </trkpt>
      <trkpt lat="46.91287" lon="4.67218">
        <ele>351.5</ele>
        <time>2013-12-31T11:11:43Z</time>
      </trkpt>
      <trkpt lat="46.91274" lon="4.67209">
        <ele>348.62</ele>
        <time>2013-12-31T11:12:00Z</time>
      </trkpt>
      <trkpt lat="46.91258" lon="4.67206">
        <ele>344.77</ele>
        <time>2013-12-31T11:12:22Z</time>
      </trkpt>
      <trkpt lat="46.91256" lon="4.67217">
        <ele>343.33</ele>
        <time>2013-12-31T11:12:31Z</time>
      </trkpt>
      <trkpt lat="46.91249" lon="4.67246">
        <ele>340.92</ele>
        <time>2013-12-31T11:12:57Z</time>
      </trkpt>
      <trkpt lat="46.91233" lon="4.67241">
        <ele>338.04</ele>
        <time>2013-12-31T11:13:17Z</time>
      </trkpt>
      <trkpt lat="46.91218" lon="4.67232">
        <ele>335.16</ele>
        <time>2013-12-31T11:13:37Z</time>
      </trkpt>
      <trkpt lat="46.91208" lon="4.67228">
        <ele>334.2</ele>
        <time>2013-12-31T11:13:50Z</time>
      </trkpt>
      <trkpt lat="46.91188" lon="4.67219">
        <ele>331.31</ele>
        <time>2013-12-31T11:14:13Z</time>
      </trkpt>
      <trkpt lat="46.91172" lon="4.67213">
        <ele>329.87</ele>
        <time>2013-12-31T11:14:31Z</time>
      </trkpt>
      <trkpt lat="46.91154" lon="4.67205">
        <ele>328.43</ele>
        <time>2013-12-31T11:14:50Z</time>
      </trkpt>
      <trkpt lat="46.91148" lon="4.67202">
        <ele>327.47</ele>
        <time>2013-12-31T11:15:08Z</time>
      </trkpt>
      <trkpt lat="46.91128" lon="4.67202">
        <ele>324.1</ele>
        <time>2013-12-31T11:15:30Z</time>
      </trkpt>
      <trkpt lat="46.9111" lon="4.67201">
        <ele>321.7</ele>
        <time>2013-12-31T11:15:52Z</time>
      </trkpt>
      <trkpt lat="46.91093" lon="4.67203">
        <ele>318.81</ele>
        <time>2013-12-31T11:16:11Z</time>
      </trkpt>
      <trkpt lat="46.9108" lon="4.67206">
        <ele>317.37</ele>
        <time>2013-12-31T11:16:29Z</time>
      </trkpt>
      <trkpt lat="46.91066" lon="4.67207">
        <ele>314.97</ele>
        <time>2013-12-31T11:16:48Z</time>
      </trkpt>
      <trkpt lat="46.91051" lon="4.67206">
        <ele>313.53</ele>
        <time>2013-12-31T11:17:05Z</time>
      </trkpt>
      <trkpt lat="46.91031" lon="4.672">
        <ele>311.12</ele>
        <time>2013-12-31T11:17:28Z</time>
      </trkpt>
      <trkpt lat="46.91017" lon="4.67195">
        <ele>308.72</ele>
        <time>2013-12-31T11:17:47Z</time>
      </trkpt>
      <trkpt lat="46.91002" lon="4.67189">
        <ele>306.8</ele>
        <time>2013-12-31T11:18:05Z</time>
      </trkpt>
      <trkpt lat="46.90985" lon="4.67184">
        <ele>304.88</ele>
        <time>2013-12-31T11:18:24Z</time>
      </trkpt>
      <trkpt lat="46.90968" lon="4.67184">
        <ele>302.95</ele>
        <time>2013-12-31T11:18:44Z</time>
      </trkpt>
      <trkpt lat="46.90946" lon="4.67188">
        <ele>300.07</ele>
        <time>2013-12-31T11:19:09Z</time>
      </trkpt>
      <trkpt lat="46.90926" lon="4.67191">
        <ele>297.18</ele>
        <time>2013-12-31T11:19:32Z</time>
      </trkpt>
      <trkpt lat="46.90908" lon="4.67192">
        <ele>294.3</ele>
        <time>2013-12-31T11:19:53Z</time>
      </trkpt>
      <trkpt lat="46.90891" lon="4.67196">
        <ele>290.94</ele>
        <time>2013-12-31T11:20:15Z</time>
      </trkpt>
      <trkpt lat="46.90876" lon="4.67194">
        <ele>289.97</ele>
        <time>2013-12-31T11:20:33Z</time>
      </trkpt>
      <trkpt lat="46.9086" lon="4.67197">
        <ele>288.05</ele>
        <time>2013-12-31T11:20:51Z</time>
      </trkpt>
      <trkpt lat="46.90839" lon="4.67194">
        <ele>285.65</ele>
        <time>2013-12-31T11:21:14Z</time>
      </trkpt>
      <trkpt lat="46.90815" lon="4.67191">
        <ele>283.25</ele>
        <time>2013-12-31T11:21:37Z</time>
      </trkpt>
      <trkpt lat="46.90791" lon="4.67187">
        <ele>281.32</ele>
        <time>2013-12-31T11:22:01Z</time>
      </trkpt>
      <trkpt lat="46.90766" lon="4.67188">
        <ele>279.4</ele>
        <time>2013-12-31T11:22:26Z</time>
      </trkpt>
      <trkpt lat="46.90737" lon="4.67186">
        <ele>277.48</ele>
        <time>2013-12-31T11:22:52Z</time>
      </trkpt>
      <trkpt lat="46.90713" lon="4.67182">
        <ele>275.56</ele>
        <time>2013-12-31T11:23:15Z</time>
      </trkpt>
      <trkpt lat="46.90692" lon="4.67176">
        <ele>273.63</ele>
        <time>2013-12-31T11:23:37Z</time>
      </trkpt>
      <trkpt lat="46.90669" lon="4.6717">
        <ele>271.71</ele>
        <time>2013-12-31T11:24:00Z</time>
      </trkpt>
      <trkpt lat="46.90645" lon="4.6716">
        <ele>270.27</ele>
        <time>2013-12-31T11:24:22Z</time>
      </trkpt>
      <trkpt lat="46.90627" lon="4.67155">
        <ele>269.31</ele>
        <time>2013-12-31T11:24:41Z</time>
      </trkpt>
      <trkpt lat="46.90604" lon="4.67149">
        <ele>268.35</ele>
        <time>2013-12-31T11:25:03Z</time>
      </trkpt>
      <trkpt lat="46.90585" lon="4.67144">
        <ele>267.38</ele>
        <time>2013-12-31T11:25:26Z</time>
      </trkpt>
      <trkpt lat="46.9057" lon="4.67141">
        <ele>266.42</ele>
        <time>2013-12-31T11:25:44Z</time>
      </trkpt>
      <trkpt lat="46.90554" lon="4.67138">
        <ele>265.94</ele>
        <time>2013-12-31T11:26:06Z</time>
      </trkpt>
      <trkpt lat="46.90548" lon="4.67136">
        <ele>265.46</ele>
        <time>2013-12-31T11:26:28Z</time>
      </trkpt>
      <trkpt lat="46.90542" lon="4.67136">
        <ele>265.46</ele>
        <time>2013-12-31T11:26:46Z</time>
      </trkpt>
      <trkpt lat="46.90543" lon="4.67135">
        <ele>265.46</ele>
        <time>2013-12-31T11:27:14Z</time>
      </trkpt>
      <trkpt lat="46.90542" lon="4.67135">
        <ele>265.46</ele>
        <time>2013-12-31T11:27:43Z</time>
      </trkpt>
      <trkpt lat="46.90523" lon="4.67126">
        <ele>265.46</ele>
        <time>2013-12-31T11:28:03Z</time>
      </trkpt>
      <trkpt lat="46.90513" lon="4.67117">
        <ele>265.46</ele>
        <time>2013-12-31T11:28:21Z</time>
      </trkpt>
      <trkpt lat="46.90494" lon="4.67092">
        <ele>264.5</ele>
        <time>2013-12-31T11:28:44Z</time>
      </trkpt>
      <trkpt lat="46.90476" lon="4.67068">
        <ele>264.02</ele>
        <time>2013-12-31T11:29:06Z</time>
      </trkpt>
      <trkpt lat="46.90453" lon="4.67054">
        <ele>263.06</ele>
        <time>2013-12-31T11:29:28Z</time>
      </trkpt>
      <trkpt lat="46.90428" lon="4.67048">
        <ele>262.58</ele>
        <time>2013-12-31T11:29:50Z</time>
      </trkpt>
      <trkpt lat="46.90419" lon="4.67047">
        <ele>261.62</ele>
        <time>2013-12-31T11:30:03Z</time>
      </trkpt>
      <trkpt lat="46.90394" lon="4.67047">
        <ele>259.69</ele>
        <time>2013-12-31T11:30:25Z</time>
      </trkpt>
      <trkpt lat="46.90369" lon="4.67042">
        <ele>258.73</ele>
        <time>2013-12-31T11:30:47Z</time>
      </trkpt>
      <trkpt lat="46.90344" lon="4.67033">
        <ele>257.77</ele>
        <time>2013-12-31T11:31:09Z</time>
      </trkpt>
      <trkpt lat="46.90324" lon="4.67024">
        <ele>256.81</ele>
        <time>2013-12-31T11:31:28Z</time>
      </trkpt>
      <trkpt lat="46.90304" lon="4.67009">
        <ele>255.37</ele>
        <time>2013-12-31T11:31:48Z</time>
      </trkpt>
      <trkpt lat="46.90281" lon="4.66994">
        <ele>254.41</ele>
        <time>2013-12-31T11:32:02Z</time>
      </trkpt>
      <trkpt lat="46.90264" lon="4.66981">
        <ele>253.44</ele>
        <time>2013-12-31T11:32:15Z</time>
      </trkpt>
      <trkpt lat="46.9026" lon="4.66973">
        <ele>252.96</ele>
        <time>2013-12-31T11:32:27Z</time>
      </trkpt>
      <trkpt lat="46.90255" lon="4.6697">
        <ele>252.48</ele>
        <time>2013-12-31T11:32:41Z</time>
      </trkpt>
      <trkpt lat="46.90245" lon="4.66966">
        <ele>251.52</ele>
        <time>2013-12-31T11:32:50Z</time>
      </trkpt>
      <trkpt lat="46.90222" lon="4.66967">
        <ele>251.04</ele>
        <time>2013-12-31T11:33:03Z</time>
      </trkpt>
      <trkpt lat="46.90195" lon="4.66975">
        <ele>249.12</ele>
        <time>2013-12-31T11:33:24Z</time>
      </trkpt>
      <trkpt lat="46.90169" lon="4.6698">
        <ele>247.2</ele>
        <time>2013-12-31T11:33:43Z</time>
      </trkpt>
      <trkpt lat="46.90144" lon="4.66983">
        <ele>245.75</ele>
        <time>2013-12-31T11:34:03Z</time>
      </trkpt>
      <trkpt lat="46.9014" lon="4.66984">
        <ele>245.27</ele>
        <time>2013-12-31T11:34:21Z</time>
      </trkpt>
      <trkpt lat="46.90136" lon="4.66982">
        <ele>244.31</ele>
        <time>2013-12-31T11:34:40Z</time>
      </trkpt>
      <trkpt lat="46.90121" lon="4.66979">
        <ele>244.31</ele>
        <time>2013-12-31T11:34:58Z</time>
      </trkpt>
      <trkpt lat="46.90114" lon="4.6698">
        <ele>243.83</ele>
        <time>2013-12-31T11:35:15Z</time>
      </trkpt>
      <trkpt lat="46.90097" lon="4.66976">
        <ele>241.91</ele>
        <time>2013-12-31T11:35:33Z</time>
      </trkpt>
      <trkpt lat="46.90078" lon="4.66973">
        <ele>239.51</ele>
        <time>2013-12-31T11:35:54Z</time>
      </trkpt>
      <trkpt lat="46.90061" lon="4.66976">
        <ele>237.1</ele>
        <time>2013-12-31T11:36:12Z</time>
      </trkpt>
      <trkpt lat="46.9004" lon="4.66985">
        <ele>234.7</ele>
        <time>2013-12-31T11:36:33Z</time>
      </trkpt>
      <trkpt lat="46.9002" lon="4.66993">
        <ele>232.78</ele>
        <time>2013-12-31T11:36:52Z</time>
      </trkpt>
      <trkpt lat="46.90012" lon="4.66992">
        <ele>232.78</ele>
        <time>2013-12-31T11:37:02Z</time>
      </trkpt>
      <trkpt lat="46.90002" lon="4.66991">
        <ele>232.3</ele>
        <time>2013-12-31T11:37:15Z</time>
      </trkpt>
      <trkpt lat="46.89985" lon="4.66989">
        <ele>231.33</ele>
        <time>2013-12-31T11:37:29Z</time>
      </trkpt>
      <trkpt lat="46.89967" lon="4.66981">
        <ele>229.89</ele>
        <time>2013-12-31T11:37:46Z</time>
      </trkpt>
      <trkpt lat="46.89953" lon="4.66976">
        <ele>228.93</ele>
        <time>2013-12-31T11:37:58Z</time>
      </trkpt>
      <trkpt lat="46.89926" lon="4.66966">
        <ele>228.45</ele>
        <time>2013-12-31T11:38:20Z</time>
      </trkpt>
      <trkpt lat="46.89898" lon="4.66958">
        <ele>227.49</ele>
        <time>2013-12-31T11:38:43Z</time>
      </trkpt>
      <trkpt lat="46.89873" lon="4.66953">
        <ele>226.53</ele>
        <time>2013-12-31T11:39:07Z</time>
      </trkpt>
      <trkpt lat="46.89848" lon="4.66945">
        <ele>226.53</ele>
        <time>2013-12-31T11:39:28Z</time>
      </trkpt>
      <trkpt lat="46.89819" lon="4.66938">
        <ele>226.53</ele>
        <time>2013-12-31T11:39:51Z</time>
      </trkpt>
      <trkpt lat="46.89796" lon="4.66931">
        <ele>226.05</ele>
        <time>2013-12-31T11:40:14Z</time>
      </trkpt>
      <trkpt lat="46.89772" lon="4.66917">
        <ele>226.05</ele>
        <time>2013-12-31T11:40:36Z</time>
      </trkpt>
      <trkpt lat="46.8977" lon="4.66915">
        <ele>227.49</ele>
        <time>2013-12-31T11:40:38Z</time>
      </trkpt>
      <trkpt lat="46.8975" lon="4.66906">
        <ele>227.97</ele>
        <time>2013-12-31T11:40:55Z</time>
      </trkpt>
      <trkpt lat="46.89727" lon="4.66891">
        <ele>227.97</ele>
        <time>2013-12-31T11:41:16Z</time>
      </trkpt>
      <trkpt lat="46.89707" lon="4.66879">
        <ele>227.49</ele>
        <time>2013-12-31T11:41:35Z</time>
      </trkpt>
      <trkpt lat="46.89692" lon="4.66867">
        <ele>226.53</ele>
        <time>2013-12-31T11:41:49Z</time>
      </trkpt>
      <trkpt lat="46.89678" lon="4.66861">
        <ele>226.53</ele>
        <time>2013-12-31T11:42:05Z</time>
      </trkpt>
      <trkpt lat="46.89674" lon="4.66861">
        <ele>226.53</ele>
        <time>2013-12-31T11:42:23Z</time>
      </trkpt>
      <trkpt lat="46.89675" lon="4.66863">
        <ele>226.53</ele>
        <time>2013-12-31T11:42:38Z</time>
      </trkpt>
      <trkpt lat="46.89674" lon="4.66877">
        <ele>226.53</ele>
        <time>2013-12-31T11:42:50Z</time>
      </trkpt>
      <trkpt lat="46.89668" lon="4.66901">
        <ele>226.05</ele>
        <time>2013-12-31T11:43:09Z</time>
      </trkpt>
      <trkpt lat="46.89662" lon="4.66926">
        <ele>226.05</ele>
        <time>2013-12-31T11:43:29Z</time>
      </trkpt>
      <trkpt lat="46.8966" lon="4.66943">
        <ele>225.57</ele>
        <time>2013-12-31T11:43:47Z</time>
      </trkpt>
      <trkpt lat="46.89658" lon="4.66972">
        <ele>225.57</ele>
        <time>2013-12-31T11:44:05Z</time>
      </trkpt>
      <trkpt lat="46.89659" lon="4.66979">
        <ele>225.57</ele>
        <time>2013-12-31T11:44:10Z</time>
      </trkpt>
      <trkpt lat="46.89657" lon="4.6701">
        <ele>225.09</ele>
        <time>2013-12-31T11:44:29Z</time>
      </trkpt>
      <trkpt lat="46.89651" lon="4.67045">
        <ele>225.09</ele>
        <time>2013-12-31T11:44:51Z</time>
      </trkpt>
      <trkpt lat="46.89641" lon="4.67074">
        <ele>224.12</ele>
        <time>2013-12-31T11:45:11Z</time>
      </trkpt>
      <trkpt lat="46.89639" lon="4.67086">
        <ele>224.12</ele>
        <time>2013-12-31T11:45:25Z</time>
      </trkpt>
      <trkpt lat="46.89638" lon="4.67088">
        <ele>224.12</ele>
        <time>2013-12-31T11:45:30Z</time>
      </trkpt>
      <trkpt lat="46.89629" lon="4.67099">
        <ele>224.12</ele>
        <time>2013-12-31T11:45:41Z</time>
      </trkpt>
      <trkpt lat="46.89616" lon="4.67125">
        <ele>224.12</ele>
        <time>2013-12-31T11:46:00Z</time>
      </trkpt>
      <trkpt lat="46.89597" lon="4.67153">
        <ele>224.12</ele>
        <time>2013-12-31T11:46:22Z</time>
      </trkpt>
      <trkpt lat="46.89584" lon="4.67172">
        <ele>223.64</ele>
        <time>2013-12-31T11:46:39Z</time>
      </trkpt>
      <trkpt lat="46.89567" lon="4.67195">
        <ele>223.16</ele>
        <time>2013-12-31T11:47:00Z</time>
      </trkpt>
      <trkpt lat="46.89551" lon="4.67219">
        <ele>223.16</ele>
        <time>2013-12-31T11:47:20Z</time>
      </trkpt>
      <trkpt lat="46.89536" lon="4.6724">
        <ele>223.16</ele>
        <time>2013-12-31T11:47:37Z</time>
      </trkpt>
      <trkpt lat="46.89519" lon="4.67268">
        <ele>223.16</ele>
        <time>2013-12-31T11:47:58Z</time>
      </trkpt>
      <trkpt lat="46.89505" lon="4.67292">
        <ele>222.68</ele>
        <time>2013-12-31T11:48:18Z</time>
      </trkpt>
      <trkpt lat="46.89489" lon="4.67315">
        <ele>222.68</ele>
        <time>2013-12-31T11:48:37Z</time>
      </trkpt>
      <trkpt lat="46.89473" lon="4.67336">
        <ele>222.68</ele>
        <time>2013-12-31T11:48:56Z</time>
      </trkpt>
      <trkpt lat="46.89457" lon="4.67361">
        <ele>222.68</ele>
        <time>2013-12-31T11:49:15Z</time>
      </trkpt>
      <trkpt lat="46.89442" lon="4.67382">
        <ele>224.12</ele>
        <time>2013-12-31T11:49:34Z</time>
      </trkpt>
      <trkpt lat="46.89436" lon="4.67392">
        <ele>224.12</ele>
        <time>2013-12-31T11:49:43Z</time>
      </trkpt>
      <trkpt lat="46.89431" lon="4.67407">
        <ele>224.12</ele>
        <time>2013-12-31T11:49:57Z</time>
      </trkpt>
      <trkpt lat="46.89421" lon="4.67428">
        <ele>224.12</ele>
        <time>2013-12-31T11:50:17Z</time>
      </trkpt>
      <trkpt lat="46.89415" lon="4.67442">
        <ele>224.12</ele>
        <time>2013-12-31T11:50:27Z</time>
      </trkpt>
      <trkpt lat="46.89405" lon="4.67464">
        <ele>224.12</ele>
        <time>2013-12-31T11:50:42Z</time>
      </trkpt>
      <trkpt lat="46.89382" lon="4.67507">
        <ele>223.16</ele>
        <time>2013-12-31T11:51:11Z</time>
      </trkpt>
      <trkpt lat="46.89362" lon="4.67541">
        <ele>222.68</ele>
        <time>2013-12-31T11:51:38Z</time>
      </trkpt>
      <trkpt lat="46.89343" lon="4.67574">
        <ele>222.68</ele>
        <time>2013-12-31T11:52:02Z</time>
      </trkpt>
      <trkpt lat="46.89324" lon="4.67603">
        <ele>222.68</ele>
        <time>2013-12-31T11:52:27Z</time>
      </trkpt>
      <trkpt lat="46.89317" lon="4.67615">
        <ele>223.64</ele>
        <time>2013-12-31T11:52:37Z</time>
      </trkpt>
      <trkpt lat="46.89295" lon="4.67638">
        <ele>224.61</ele>
        <time>2013-12-31T11:52:59Z</time>
      </trkpt>
      <trkpt lat="46.89274" lon="4.67668">
        <ele>223.64</ele>
        <time>2013-12-31T11:53:24Z</time>
      </trkpt>
      <trkpt lat="46.89256" lon="4.67692">
        <ele>222.68</ele>
        <time>2013-12-31T11:53:44Z</time>
      </trkpt>
      <trkpt lat="46.89239" lon="4.67718">
        <ele>221.24</ele>
        <time>2013-12-31T11:54:07Z</time>
      </trkpt>
      <trkpt lat="46.89238" lon="4.67726">
        <ele>221.24</ele>
        <time>2013-12-31T11:54:13Z</time>
      </trkpt>
      <trkpt lat="46.89237" lon="4.67728">
        <ele>221.24</ele>
        <time>2013-12-31T11:54:15Z</time>
      </trkpt>
      <trkpt lat="46.89219" lon="4.67751">
        <ele>221.24</ele>
        <time>2013-12-31T11:54:35Z</time>
      </trkpt>
      <trkpt lat="46.89209" lon="4.67766">
        <ele>221.24</ele>
        <time>2013-12-31T11:54:49Z</time>
      </trkpt>
      <trkpt lat="46.89197" lon="4.67789">
        <ele>221.24</ele>
        <time>2013-12-31T11:55:06Z</time>
      </trkpt>
      <trkpt lat="46.89185" lon="4.67816">
        <ele>221.24</ele>
        <time>2013-12-31T11:55:22Z</time>
      </trkpt>
      <trkpt lat="46.89175" lon="4.6784">
        <ele>221.24</ele>
        <time>2013-12-31T11:55:40Z</time>
      </trkpt>
      <trkpt lat="46.89164" lon="4.67867">
        <ele>221.24</ele>
        <time>2013-12-31T11:55:58Z</time>
      </trkpt>
      <trkpt lat="46.89158" lon="4.6789">
        <ele>220.76</ele>
        <time>2013-12-31T11:56:13Z</time>
      </trkpt>
      <trkpt lat="46.89154" lon="4.67909">
        <ele>220.76</ele>
        <time>2013-12-31T11:56:26Z</time>
      </trkpt>
      <trkpt lat="46.89146" lon="4.67936">
        <ele>220.76</ele>
        <time>2013-12-31T11:56:44Z</time>
      </trkpt>
      <trkpt lat="46.89137" lon="4.67958">
        <ele>220.76</ele>
        <time>2013-12-31T11:57:02Z</time>
      </trkpt>
      <trkpt lat="46.89134" lon="4.67955">
        <ele>220.76</ele>
        <time>2013-12-31T11:57:22Z</time>
      </trkpt>
      <trkpt lat="46.89133" lon="4.67953">
        <ele>220.76</ele>
        <time>2013-12-31T11:57:47Z</time>
      </trkpt>
      <trkpt lat="46.89135" lon="4.67945">
        <ele>220.76</ele>
        <time>2013-12-31T11:58:14Z</time>
      </trkpt>
      <trkpt lat="46.89137" lon="4.67948">
        <ele>220.28</ele>
        <time>2013-12-31T11:58:22Z</time>
      </trkpt>
    </trkseg>
  </trk>
</gpx>